<?xml version="1.0" encoding="UTF-8" standalone="no" ?><gpx xmlns="http://www.topografix.com/GPX/1/1" xmlns:gpxx="http://www.garmin.com/xmlschemas/WaypointExtension/v1" xmlns:gpxtrx="http://www.garmin.com/xmlschemas/GpxExtensions/v3" xmlns:gpxtpx="http://www.garmin.com/xmlschemas/TrackPointExtension/v1" creator="Oregon 450t" version="1.1" xmlns:xsi="http://www.w3.org/2001/XMLSchema-instance" xsi:schemaLocation="http://www.topografix.com/GPX/1/1 http://www.topografix.com/GPX/1/1/gpx.xsd http://www.garmin.com/xmlschemas/WaypointExtension/v1 http://www8.garmin.com/xmlschemas/WaypointExtensionv1.xsd http://www.garmin.com/xmlschemas/TrackPointExtension/v1 http://www.garmin.com/xmlschemas/TrackPointExtensionv1.xsd"><metadata><link href="http://www.garmin.com"><text>Garmin International</text></link><time>2013-08-04T09:05:23Z</time></metadata><trk><name>04-AUG-13 11:05:21</name><extensions><gpxtrx:TrackExtension><gpxtrx:DisplayColor>Black</gpxtrx:DisplayColor></gpxtrx:TrackExtension></extensions><trkseg><trkpt lat="46.701015" lon="8.841069"><ele>1194.09</ele><time>2013-08-04T06:54:16Z</time></trkpt><trkpt lat="46.701019" lon="8.841072"><ele>1199.38</ele><time>2013-08-04T06:54:17Z</time></trkpt><trkpt lat="46.701069" lon="8.841046"><ele>1201.79</ele><time>2013-08-04T06:54:41Z</time></trkpt><trkpt lat="46.701057" lon="8.841001"><ele>1205.15</ele><time>2013-08-04T06:54:53Z</time></trkpt><trkpt lat="46.701023" lon="8.840977"><ele>1209.00</ele><time>2013-08-04T06:55:06Z</time></trkpt><trkpt lat="46.701015" lon="8.840951"><ele>1211.88</ele><time>2013-08-04T06:55:15Z</time></trkpt><trkpt lat="46.701015" lon="8.840953"><ele>1213.32</ele><time>2013-08-04T06:55:17Z</time></trkpt><trkpt lat="46.701054" lon="8.840952"><ele>1216.69</ele><time>2013-08-04T06:55:25Z</time></trkpt><trkpt lat="46.701054" lon="8.840943"><ele>1217.65</ele><time>2013-08-04T06:55:27Z</time></trkpt><trkpt lat="46.701057" lon="8.840924"><ele>1219.57</ele><time>2013-08-04T06:55:31Z</time></trkpt><trkpt lat="46.701057" lon="8.840923"><ele>1222.93</ele><time>2013-08-04T06:55:39Z</time></trkpt><trkpt lat="46.701057" lon="8.840923"><ele>1222.93</ele><time>2013-08-04T06:55:40Z</time></trkpt><trkpt lat="46.701057" lon="8.840923"><ele>1226.78</ele><time>2013-08-04T06:55:48Z</time></trkpt><trkpt lat="46.701057" lon="8.840923"><ele>1229.66</ele><time>2013-08-04T06:55:57Z</time></trkpt><trkpt lat="46.701057" lon="8.840923"><ele>1233.03</ele><time>2013-08-04T06:56:12Z</time></trkpt><trkpt lat="46.701054" lon="8.840921"><ele>1236.87</ele><time>2013-08-04T06:56:38Z</time></trkpt><trkpt lat="46.701050" lon="8.840920"><ele>1235.91</ele><time>2013-08-04T06:57:04Z</time></trkpt><trkpt lat="46.701046" lon="8.840919"><ele>1235.91</ele><time>2013-08-04T06:57:25Z</time></trkpt><trkpt lat="46.701046" lon="8.840919"><ele>1235.91</ele><time>2013-08-04T06:57:49Z</time></trkpt><trkpt lat="46.701035" lon="8.840931"><ele>1236.39</ele><time>2013-08-04T06:58:09Z</time></trkpt><trkpt lat="46.701035" lon="8.840931"><ele>1236.87</ele><time>2013-08-04T06:58:25Z</time></trkpt><trkpt lat="46.701031" lon="8.840931"><ele>1236.87</ele><time>2013-08-04T06:58:49Z</time></trkpt><trkpt lat="46.701031" lon="8.840932"><ele>1236.39</ele><time>2013-08-04T06:59:13Z</time></trkpt><trkpt lat="46.701019" lon="8.840919"><ele>1236.87</ele><time>2013-08-04T06:59:33Z</time></trkpt><trkpt lat="46.701031" lon="8.840946"><ele>1236.39</ele><time>2013-08-04T06:59:53Z</time></trkpt><trkpt lat="46.701004" lon="8.840974"><ele>1236.39</ele><time>2013-08-04T07:00:14Z</time></trkpt><trkpt lat="46.701019" lon="8.840965"><ele>1236.39</ele><time>2013-08-04T07:00:37Z</time></trkpt><trkpt lat="46.700993" lon="8.840981"><ele>1236.87</ele><time>2013-08-04T07:01:01Z</time></trkpt><trkpt lat="46.700977" lon="8.840989"><ele>1235.91</ele><time>2013-08-04T07:01:25Z</time></trkpt><trkpt lat="46.700939" lon="8.841024"><ele>1235.91</ele><time>2013-08-04T07:01:49Z</time></trkpt><trkpt lat="46.700943" lon="8.841053"><ele>1235.91</ele><time>2013-08-04T07:02:08Z</time></trkpt><trkpt lat="46.700943" lon="8.841053"><ele>1235.91</ele><time>2013-08-04T07:02:30Z</time></trkpt><trkpt lat="46.700935" lon="8.841061"><ele>1235.91</ele><time>2013-08-04T07:02:51Z</time></trkpt><trkpt lat="46.700882" lon="8.841094"><ele>1235.91</ele><time>2013-08-04T07:03:09Z</time></trkpt><trkpt lat="46.700890" lon="8.841104"><ele>1235.91</ele><time>2013-08-04T07:03:20Z</time></trkpt><trkpt lat="46.701000" lon="8.841127"><ele>1235.91</ele><time>2013-08-04T07:03:41Z</time></trkpt><trkpt lat="46.701000" lon="8.841124"><ele>1235.43</ele><time>2013-08-04T07:04:04Z</time></trkpt><trkpt lat="46.701027" lon="8.841060"><ele>1236.87</ele><time>2013-08-04T07:04:26Z</time></trkpt><trkpt lat="46.701027" lon="8.841060"><ele>1237.83</ele><time>2013-08-04T07:04:28Z</time></trkpt><trkpt lat="46.701031" lon="8.841036"><ele>1238.80</ele><time>2013-08-04T07:04:30Z</time></trkpt><trkpt lat="46.701042" lon="8.841012"><ele>1240.24</ele><time>2013-08-04T07:04:32Z</time></trkpt><trkpt lat="46.701088" lon="8.840858"><ele>1245.53</ele><time>2013-08-04T07:04:37Z</time></trkpt><trkpt lat="46.701118" lon="8.840706"><ele>1248.89</ele><time>2013-08-04T07:04:40Z</time></trkpt><trkpt lat="46.701153" lon="8.840497"><ele>1253.22</ele><time>2013-08-04T07:04:43Z</time></trkpt><trkpt lat="46.701176" lon="8.840323"><ele>1257.06</ele><time>2013-08-04T07:04:45Z</time></trkpt><trkpt lat="46.701195" lon="8.840138"><ele>1260.91</ele><time>2013-08-04T07:04:47Z</time></trkpt><trkpt lat="46.701210" lon="8.839953"><ele>1264.75</ele><time>2013-08-04T07:04:49Z</time></trkpt><trkpt lat="46.701218" lon="8.839778"><ele>1268.12</ele><time>2013-08-04T07:04:51Z</time></trkpt><trkpt lat="46.701233" lon="8.839588"><ele>1271.96</ele><time>2013-08-04T07:04:53Z</time></trkpt><trkpt lat="46.701241" lon="8.839396"><ele>1275.81</ele><time>2013-08-04T07:04:55Z</time></trkpt><trkpt lat="46.701256" lon="8.839200"><ele>1280.13</ele><time>2013-08-04T07:04:57Z</time></trkpt><trkpt lat="46.701275" lon="8.839010"><ele>1284.94</ele><time>2013-08-04T07:04:59Z</time></trkpt><trkpt lat="46.701294" lon="8.838806"><ele>1288.30</ele><time>2013-08-04T07:05:01Z</time></trkpt><trkpt lat="46.701344" lon="8.838551"><ele>1292.63</ele><time>2013-08-04T07:05:03Z</time></trkpt><trkpt lat="46.701378" lon="8.838323"><ele>1296.96</ele><time>2013-08-04T07:05:05Z</time></trkpt><trkpt lat="46.701405" lon="8.838119"><ele>1300.80</ele><time>2013-08-04T07:05:07Z</time></trkpt><trkpt lat="46.701427" lon="8.837910"><ele>1307.05</ele><time>2013-08-04T07:05:09Z</time></trkpt><trkpt lat="46.701450" lon="8.837718"><ele>1310.90</ele><time>2013-08-04T07:05:11Z</time></trkpt><trkpt lat="46.701469" lon="8.837523"><ele>1315.22</ele><time>2013-08-04T07:05:13Z</time></trkpt><trkpt lat="46.701492" lon="8.837330"><ele>1320.03</ele><time>2013-08-04T07:05:15Z</time></trkpt><trkpt lat="46.701519" lon="8.837140"><ele>1323.87</ele><time>2013-08-04T07:05:17Z</time></trkpt><trkpt lat="46.701538" lon="8.836950"><ele>1329.16</ele><time>2013-08-04T07:05:19Z</time></trkpt><trkpt lat="46.701561" lon="8.836764"><ele>1332.52</ele><time>2013-08-04T07:05:21Z</time></trkpt><trkpt lat="46.701572" lon="8.836668"><ele>1336.37</ele><time>2013-08-04T07:05:22Z</time></trkpt><trkpt lat="46.701591" lon="8.836484"><ele>1340.70</ele><time>2013-08-04T07:05:24Z</time></trkpt><trkpt lat="46.701614" lon="8.836309"><ele>1345.50</ele><time>2013-08-04T07:05:26Z</time></trkpt><trkpt lat="46.701641" lon="8.836135"><ele>1349.83</ele><time>2013-08-04T07:05:28Z</time></trkpt><trkpt lat="46.701672" lon="8.835957"><ele>1355.60</ele><time>2013-08-04T07:05:30Z</time></trkpt><trkpt lat="46.701698" lon="8.835778"><ele>1359.92</ele><time>2013-08-04T07:05:32Z</time></trkpt><trkpt lat="46.701721" lon="8.835599"><ele>1366.17</ele><time>2013-08-04T07:05:34Z</time></trkpt><trkpt lat="46.701748" lon="8.835427"><ele>1370.98</ele><time>2013-08-04T07:05:36Z</time></trkpt><trkpt lat="46.701775" lon="8.835262"><ele>1376.26</ele><time>2013-08-04T07:05:38Z</time></trkpt><trkpt lat="46.701797" lon="8.835081"><ele>1381.55</ele><time>2013-08-04T07:05:40Z</time></trkpt><trkpt lat="46.701824" lon="8.834908"><ele>1385.88</ele><time>2013-08-04T07:05:42Z</time></trkpt><trkpt lat="46.701851" lon="8.834744"><ele>1391.17</ele><time>2013-08-04T07:05:44Z</time></trkpt><trkpt lat="46.701862" lon="8.834666"><ele>1395.49</ele><time>2013-08-04T07:05:45Z</time></trkpt><trkpt lat="46.701889" lon="8.834511"><ele>1400.78</ele><time>2013-08-04T07:05:47Z</time></trkpt><trkpt lat="46.701912" lon="8.834343"><ele>1406.07</ele><time>2013-08-04T07:05:49Z</time></trkpt><trkpt lat="46.701942" lon="8.834186"><ele>1411.35</ele><time>2013-08-04T07:05:51Z</time></trkpt><trkpt lat="46.701969" lon="8.834029"><ele>1417.12</ele><time>2013-08-04T07:05:53Z</time></trkpt><trkpt lat="46.701996" lon="8.833858"><ele>1422.41</ele><time>2013-08-04T07:05:55Z</time></trkpt><trkpt lat="46.702019" lon="8.833706"><ele>1427.70</ele><time>2013-08-04T07:05:57Z</time></trkpt><trkpt lat="46.702030" lon="8.833631"><ele>1432.02</ele><time>2013-08-04T07:05:58Z</time></trkpt><trkpt lat="46.702049" lon="8.833469"><ele>1438.27</ele><time>2013-08-04T07:06:00Z</time></trkpt><trkpt lat="46.702072" lon="8.833313"><ele>1444.04</ele><time>2013-08-04T07:06:02Z</time></trkpt><trkpt lat="46.702095" lon="8.833160"><ele>1449.81</ele><time>2013-08-04T07:06:04Z</time></trkpt><trkpt lat="46.702114" lon="8.833014"><ele>1455.57</ele><time>2013-08-04T07:06:06Z</time></trkpt><trkpt lat="46.702133" lon="8.832862"><ele>1461.34</ele><time>2013-08-04T07:06:08Z</time></trkpt><trkpt lat="46.702152" lon="8.832709"><ele>1467.11</ele><time>2013-08-04T07:06:10Z</time></trkpt><trkpt lat="46.702164" lon="8.832633"><ele>1471.44</ele><time>2013-08-04T07:06:11Z</time></trkpt><trkpt lat="46.702179" lon="8.832557"><ele>1474.32</ele><time>2013-08-04T07:06:12Z</time></trkpt><trkpt lat="46.702190" lon="8.832475"><ele>1478.16</ele><time>2013-08-04T07:06:13Z</time></trkpt><trkpt lat="46.702213" lon="8.832310"><ele>1483.45</ele><time>2013-08-04T07:06:15Z</time></trkpt><trkpt lat="46.702236" lon="8.832145"><ele>1489.22</ele><time>2013-08-04T07:06:17Z</time></trkpt><trkpt lat="46.702248" lon="8.832063"><ele>1492.58</ele><time>2013-08-04T07:06:18Z</time></trkpt><trkpt lat="46.702267" lon="8.831907"><ele>1499.31</ele><time>2013-08-04T07:06:20Z</time></trkpt><trkpt lat="46.702293" lon="8.831764"><ele>1505.08</ele><time>2013-08-04T07:06:22Z</time></trkpt><trkpt lat="46.702305" lon="8.831694"><ele>1506.52</ele><time>2013-08-04T07:06:23Z</time></trkpt><trkpt lat="46.702347" lon="8.831493"><ele>1512.29</ele><time>2013-08-04T07:06:26Z</time></trkpt><trkpt lat="46.702377" lon="8.831371"><ele>1515.18</ele><time>2013-08-04T07:06:28Z</time></trkpt><trkpt lat="46.702404" lon="8.831244"><ele>1519.02</ele><time>2013-08-04T07:06:30Z</time></trkpt><trkpt lat="46.702431" lon="8.831103"><ele>1522.87</ele><time>2013-08-04T07:06:32Z</time></trkpt><trkpt lat="46.702457" lon="8.830959"><ele>1526.23</ele><time>2013-08-04T07:06:34Z</time></trkpt><trkpt lat="46.702480" lon="8.830810"><ele>1529.59</ele><time>2013-08-04T07:06:36Z</time></trkpt><trkpt lat="46.702511" lon="8.830651"><ele>1533.44</ele><time>2013-08-04T07:06:38Z</time></trkpt><trkpt lat="46.702538" lon="8.830491"><ele>1538.25</ele><time>2013-08-04T07:06:40Z</time></trkpt><trkpt lat="46.702557" lon="8.830316"><ele>1542.09</ele><time>2013-08-04T07:06:42Z</time></trkpt><trkpt lat="46.702576" lon="8.830138"><ele>1546.42</ele><time>2013-08-04T07:06:44Z</time></trkpt><trkpt lat="46.702599" lon="8.829959"><ele>1550.26</ele><time>2013-08-04T07:06:46Z</time></trkpt><trkpt lat="46.702618" lon="8.829783"><ele>1554.59</ele><time>2013-08-04T07:06:48Z</time></trkpt><trkpt lat="46.702641" lon="8.829613"><ele>1560.84</ele><time>2013-08-04T07:06:50Z</time></trkpt><trkpt lat="46.702660" lon="8.829436"><ele>1564.68</ele><time>2013-08-04T07:06:52Z</time></trkpt><trkpt lat="46.702675" lon="8.829263"><ele>1569.01</ele><time>2013-08-04T07:06:54Z</time></trkpt><trkpt lat="46.702698" lon="8.829092"><ele>1573.82</ele><time>2013-08-04T07:06:56Z</time></trkpt><trkpt lat="46.702721" lon="8.828918"><ele>1578.14</ele><time>2013-08-04T07:06:58Z</time></trkpt><trkpt lat="46.702740" lon="8.828748"><ele>1582.95</ele><time>2013-08-04T07:07:00Z</time></trkpt><trkpt lat="46.702759" lon="8.828579"><ele>1588.24</ele><time>2013-08-04T07:07:02Z</time></trkpt><trkpt lat="46.702766" lon="8.828495"><ele>1591.60</ele><time>2013-08-04T07:07:03Z</time></trkpt><trkpt lat="46.702778" lon="8.828410"><ele>1594.96</ele><time>2013-08-04T07:07:04Z</time></trkpt><trkpt lat="46.702797" lon="8.828244"><ele>1599.77</ele><time>2013-08-04T07:07:06Z</time></trkpt><trkpt lat="46.702812" lon="8.828167"><ele>1601.69</ele><time>2013-08-04T07:07:07Z</time></trkpt><trkpt lat="46.702896" lon="8.827857"><ele>1605.54</ele><time>2013-08-04T07:07:12Z</time></trkpt><trkpt lat="46.702957" lon="8.827625"><ele>1608.90</ele><time>2013-08-04T07:07:16Z</time></trkpt><trkpt lat="46.703022" lon="8.827338"><ele>1611.79</ele><time>2013-08-04T07:07:20Z</time></trkpt><trkpt lat="46.703068" lon="8.827069"><ele>1614.67</ele><time>2013-08-04T07:07:23Z</time></trkpt><trkpt lat="46.703121" lon="8.826699"><ele>1619.00</ele><time>2013-08-04T07:07:27Z</time></trkpt><trkpt lat="46.703163" lon="8.826428"><ele>1622.36</ele><time>2013-08-04T07:07:30Z</time></trkpt><trkpt lat="46.703217" lon="8.826075"><ele>1625.73</ele><time>2013-08-04T07:07:34Z</time></trkpt><trkpt lat="46.703266" lon="8.825760"><ele>1630.05</ele><time>2013-08-04T07:07:38Z</time></trkpt><trkpt lat="46.703285" lon="8.825566"><ele>1632.94</ele><time>2013-08-04T07:07:40Z</time></trkpt><trkpt lat="46.703312" lon="8.825264"><ele>1636.78</ele><time>2013-08-04T07:07:43Z</time></trkpt><trkpt lat="46.703346" lon="8.824978"><ele>1640.63</ele><time>2013-08-04T07:07:46Z</time></trkpt><trkpt lat="46.703381" lon="8.824694"><ele>1643.99</ele><time>2013-08-04T07:07:49Z</time></trkpt><trkpt lat="46.703407" lon="8.824506"><ele>1647.36</ele><time>2013-08-04T07:07:51Z</time></trkpt><trkpt lat="46.703442" lon="8.824214"><ele>1651.68</ele><time>2013-08-04T07:07:54Z</time></trkpt><trkpt lat="46.703468" lon="8.823921"><ele>1656.01</ele><time>2013-08-04T07:07:57Z</time></trkpt><trkpt lat="46.703499" lon="8.823640"><ele>1659.85</ele><time>2013-08-04T07:08:00Z</time></trkpt><trkpt lat="46.703529" lon="8.823361"><ele>1664.18</ele><time>2013-08-04T07:08:03Z</time></trkpt><trkpt lat="46.703552" lon="8.823169"><ele>1667.06</ele><time>2013-08-04T07:08:05Z</time></trkpt><trkpt lat="46.703583" lon="8.822883"><ele>1671.39</ele><time>2013-08-04T07:08:08Z</time></trkpt><trkpt lat="46.703602" lon="8.822695"><ele>1674.75</ele><time>2013-08-04T07:08:10Z</time></trkpt><trkpt lat="46.703632" lon="8.822419"><ele>1679.08</ele><time>2013-08-04T07:08:13Z</time></trkpt><trkpt lat="46.703651" lon="8.822234"><ele>1682.44</ele><time>2013-08-04T07:08:15Z</time></trkpt><trkpt lat="46.703674" lon="8.822049"><ele>1686.77</ele><time>2013-08-04T07:08:17Z</time></trkpt><trkpt lat="46.703709" lon="8.821780"><ele>1692.06</ele><time>2013-08-04T07:08:20Z</time></trkpt><trkpt lat="46.703735" lon="8.821609"><ele>1695.42</ele><time>2013-08-04T07:08:22Z</time></trkpt><trkpt lat="46.703770" lon="8.821345"><ele>1699.75</ele><time>2013-08-04T07:08:25Z</time></trkpt><trkpt lat="46.703793" lon="8.821166"><ele>1703.11</ele><time>2013-08-04T07:08:27Z</time></trkpt><trkpt lat="46.703819" lon="8.820989"><ele>1707.44</ele><time>2013-08-04T07:08:29Z</time></trkpt><trkpt lat="46.703846" lon="8.820817"><ele>1711.28</ele><time>2013-08-04T07:08:31Z</time></trkpt><trkpt lat="46.703869" lon="8.820648"><ele>1714.65</ele><time>2013-08-04T07:08:33Z</time></trkpt><trkpt lat="46.703892" lon="8.820473"><ele>1718.49</ele><time>2013-08-04T07:08:35Z</time></trkpt><trkpt lat="46.703911" lon="8.820292"><ele>1721.86</ele><time>2013-08-04T07:08:37Z</time></trkpt><trkpt lat="46.703934" lon="8.820114"><ele>1725.22</ele><time>2013-08-04T07:08:39Z</time></trkpt><trkpt lat="46.703960" lon="8.819941"><ele>1729.55</ele><time>2013-08-04T07:08:41Z</time></trkpt><trkpt lat="46.703983" lon="8.819767"><ele>1732.91</ele><time>2013-08-04T07:08:43Z</time></trkpt><trkpt lat="46.704006" lon="8.819592"><ele>1738.20</ele><time>2013-08-04T07:08:45Z</time></trkpt><trkpt lat="46.704029" lon="8.819417"><ele>1742.05</ele><time>2013-08-04T07:08:47Z</time></trkpt><trkpt lat="46.704056" lon="8.819244"><ele>1745.41</ele><time>2013-08-04T07:08:49Z</time></trkpt><trkpt lat="46.704075" lon="8.819075"><ele>1750.22</ele><time>2013-08-04T07:08:51Z</time></trkpt><trkpt lat="46.704102" lon="8.818908"><ele>1753.58</ele><time>2013-08-04T07:08:53Z</time></trkpt><trkpt lat="46.704128" lon="8.818742"><ele>1758.87</ele><time>2013-08-04T07:08:55Z</time></trkpt><trkpt lat="46.704147" lon="8.818567"><ele>1763.68</ele><time>2013-08-04T07:08:57Z</time></trkpt><trkpt lat="46.704166" lon="8.818394"><ele>1768.00</ele><time>2013-08-04T07:08:59Z</time></trkpt><trkpt lat="46.704185" lon="8.818221"><ele>1772.81</ele><time>2013-08-04T07:09:01Z</time></trkpt><trkpt lat="46.704208" lon="8.818053"><ele>1776.65</ele><time>2013-08-04T07:09:03Z</time></trkpt><trkpt lat="46.704235" lon="8.817885"><ele>1780.50</ele><time>2013-08-04T07:09:05Z</time></trkpt><trkpt lat="46.704258" lon="8.817710"><ele>1785.31</ele><time>2013-08-04T07:09:07Z</time></trkpt><trkpt lat="46.704281" lon="8.817539"><ele>1790.59</ele><time>2013-08-04T07:09:09Z</time></trkpt><trkpt lat="46.704308" lon="8.817367"><ele>1794.92</ele><time>2013-08-04T07:09:11Z</time></trkpt><trkpt lat="46.704330" lon="8.817206"><ele>1799.73</ele><time>2013-08-04T07:09:13Z</time></trkpt><trkpt lat="46.704357" lon="8.817052"><ele>1804.53</ele><time>2013-08-04T07:09:15Z</time></trkpt><trkpt lat="46.704376" lon="8.816906"><ele>1808.86</ele><time>2013-08-04T07:09:17Z</time></trkpt><trkpt lat="46.704395" lon="8.816786"><ele>1812.70</ele><time>2013-08-04T07:09:19Z</time></trkpt><trkpt lat="46.704414" lon="8.816682"><ele>1817.51</ele><time>2013-08-04T07:09:21Z</time></trkpt><trkpt lat="46.704437" lon="8.816551"><ele>1821.84</ele><time>2013-08-04T07:09:24Z</time></trkpt><trkpt lat="46.704456" lon="8.816451"><ele>1826.16</ele><time>2013-08-04T07:09:27Z</time></trkpt><trkpt lat="46.704472" lon="8.816368"><ele>1830.01</ele><time>2013-08-04T07:09:31Z</time></trkpt><trkpt lat="46.704483" lon="8.816346"><ele>1831.93</ele><time>2013-08-04T07:09:34Z</time></trkpt><trkpt lat="46.704491" lon="8.816377"><ele>1835.77</ele><time>2013-08-04T07:09:46Z</time></trkpt><trkpt lat="46.704491" lon="8.816377"><ele>1838.66</ele><time>2013-08-04T07:10:07Z</time></trkpt><trkpt lat="46.704494" lon="8.816379"><ele>1842.02</ele><time>2013-08-04T07:10:26Z</time></trkpt><trkpt lat="46.704517" lon="8.816411"><ele>1841.54</ele><time>2013-08-04T07:10:45Z</time></trkpt><trkpt lat="46.704498" lon="8.816355"><ele>1842.02</ele><time>2013-08-04T07:11:12Z</time></trkpt><trkpt lat="46.704468" lon="8.816258"><ele>1842.50</ele><time>2013-08-04T07:11:17Z</time></trkpt><trkpt lat="46.704453" lon="8.816068"><ele>1842.50</ele><time>2013-08-04T07:11:31Z</time></trkpt><trkpt lat="46.704460" lon="8.815970"><ele>1842.02</ele><time>2013-08-04T07:11:36Z</time></trkpt><trkpt lat="46.704491" lon="8.815711"><ele>1842.50</ele><time>2013-08-04T07:11:49Z</time></trkpt><trkpt lat="46.704586" lon="8.815501"><ele>1842.50</ele><time>2013-08-04T07:12:03Z</time></trkpt><trkpt lat="46.704571" lon="8.815480"><ele>1842.50</ele><time>2013-08-04T07:12:13Z</time></trkpt><trkpt lat="46.704571" lon="8.815480"><ele>1842.98</ele><time>2013-08-04T07:12:40Z</time></trkpt><trkpt lat="46.704575" lon="8.815470"><ele>1842.98</ele><time>2013-08-04T07:13:04Z</time></trkpt><trkpt lat="46.704575" lon="8.815470"><ele>1843.47</ele><time>2013-08-04T07:13:25Z</time></trkpt><trkpt lat="46.704575" lon="8.815436"><ele>1842.98</ele><time>2013-08-04T07:13:32Z</time></trkpt><trkpt lat="46.704613" lon="8.815346"><ele>1842.50</ele><time>2013-08-04T07:13:38Z</time></trkpt><trkpt lat="46.704655" lon="8.815269"><ele>1842.98</ele><time>2013-08-04T07:13:45Z</time></trkpt><trkpt lat="46.704681" lon="8.815167"><ele>1845.39</ele><time>2013-08-04T07:13:55Z</time></trkpt><trkpt lat="46.704704" lon="8.815077"><ele>1846.83</ele><time>2013-08-04T07:14:03Z</time></trkpt><trkpt lat="46.704693" lon="8.815022"><ele>1847.79</ele><time>2013-08-04T07:14:11Z</time></trkpt><trkpt lat="46.704662" lon="8.814921"><ele>1848.75</ele><time>2013-08-04T07:14:20Z</time></trkpt><trkpt lat="46.704659" lon="8.814841"><ele>1849.71</ele><time>2013-08-04T07:14:27Z</time></trkpt><trkpt lat="46.704628" lon="8.814746"><ele>1850.68</ele><time>2013-08-04T07:14:35Z</time></trkpt><trkpt lat="46.704605" lon="8.814710"><ele>1851.16</ele><time>2013-08-04T07:14:39Z</time></trkpt><trkpt lat="46.704567" lon="8.814654"><ele>1852.12</ele><time>2013-08-04T07:14:46Z</time></trkpt><trkpt lat="46.704502" lon="8.814597"><ele>1853.56</ele><time>2013-08-04T07:14:55Z</time></trkpt><trkpt lat="46.704472" lon="8.814553"><ele>1853.56</ele><time>2013-08-04T07:14:59Z</time></trkpt><trkpt lat="46.704472" lon="8.814435"><ele>1854.52</ele><time>2013-08-04T07:15:08Z</time></trkpt><trkpt lat="46.704475" lon="8.814338"><ele>1854.52</ele><time>2013-08-04T07:15:15Z</time></trkpt><trkpt lat="46.704479" lon="8.814232"><ele>1855.48</ele><time>2013-08-04T07:15:23Z</time></trkpt><trkpt lat="46.704468" lon="8.814186"><ele>1857.89</ele><time>2013-08-04T07:15:30Z</time></trkpt><trkpt lat="46.704475" lon="8.814134"><ele>1858.37</ele><time>2013-08-04T07:15:38Z</time></trkpt><trkpt lat="46.704487" lon="8.814054"><ele>1860.29</ele><time>2013-08-04T07:15:46Z</time></trkpt><trkpt lat="46.704498" lon="8.813970"><ele>1861.25</ele><time>2013-08-04T07:15:54Z</time></trkpt><trkpt lat="46.704540" lon="8.813881"><ele>1863.17</ele><time>2013-08-04T07:16:02Z</time></trkpt><trkpt lat="46.704559" lon="8.813839"><ele>1864.13</ele><time>2013-08-04T07:16:10Z</time></trkpt><trkpt lat="46.704651" lon="8.813774"><ele>1865.09</ele><time>2013-08-04T07:16:20Z</time></trkpt><trkpt lat="46.704731" lon="8.813763"><ele>1866.06</ele><time>2013-08-04T07:16:29Z</time></trkpt><trkpt lat="46.704811" lon="8.813765"><ele>1867.02</ele><time>2013-08-04T07:16:38Z</time></trkpt><trkpt lat="46.704857" lon="8.813757"><ele>1867.98</ele><time>2013-08-04T07:16:42Z</time></trkpt><trkpt lat="46.704868" lon="8.813746"><ele>1867.98</ele><time>2013-08-04T07:16:45Z</time></trkpt><trkpt lat="46.704922" lon="8.813681"><ele>1869.42</ele><time>2013-08-04T07:16:54Z</time></trkpt><trkpt lat="46.704929" lon="8.813588"><ele>1869.90</ele><time>2013-08-04T07:17:03Z</time></trkpt><trkpt lat="46.704941" lon="8.813518"><ele>1870.86</ele><time>2013-08-04T07:17:10Z</time></trkpt><trkpt lat="46.704941" lon="8.813468"><ele>1872.79</ele><time>2013-08-04T07:17:18Z</time></trkpt><trkpt lat="46.704960" lon="8.813384"><ele>1873.27</ele><time>2013-08-04T07:17:25Z</time></trkpt><trkpt lat="46.704952" lon="8.813334"><ele>1873.75</ele><time>2013-08-04T07:17:32Z</time></trkpt><trkpt lat="46.704941" lon="8.813274"><ele>1875.67</ele><time>2013-08-04T07:17:39Z</time></trkpt><trkpt lat="46.704906" lon="8.813153"><ele>1876.63</ele><time>2013-08-04T07:17:47Z</time></trkpt><trkpt lat="46.704872" lon="8.813075"><ele>1877.59</ele><time>2013-08-04T07:17:55Z</time></trkpt><trkpt lat="46.704830" lon="8.813051"><ele>1879.03</ele><time>2013-08-04T07:18:03Z</time></trkpt><trkpt lat="46.704807" lon="8.813025"><ele>1879.51</ele><time>2013-08-04T07:18:09Z</time></trkpt><trkpt lat="46.704796" lon="8.813011"><ele>1879.51</ele><time>2013-08-04T07:18:13Z</time></trkpt><trkpt lat="46.704769" lon="8.812979"><ele>1880.48</ele><time>2013-08-04T07:18:16Z</time></trkpt><trkpt lat="46.704723" lon="8.812911"><ele>1882.40</ele><time>2013-08-04T07:18:25Z</time></trkpt><trkpt lat="46.704708" lon="8.812881"><ele>1881.92</ele><time>2013-08-04T07:18:28Z</time></trkpt><trkpt lat="46.704693" lon="8.812843"><ele>1882.40</ele><time>2013-08-04T07:18:31Z</time></trkpt><trkpt lat="46.704643" lon="8.812728"><ele>1884.80</ele><time>2013-08-04T07:18:40Z</time></trkpt><trkpt lat="46.704590" lon="8.812649"><ele>1884.80</ele><time>2013-08-04T07:18:48Z</time></trkpt><trkpt lat="46.704575" lon="8.812600"><ele>1885.76</ele><time>2013-08-04T07:18:57Z</time></trkpt><trkpt lat="46.704575" lon="8.812493"><ele>1887.21</ele><time>2013-08-04T07:19:05Z</time></trkpt><trkpt lat="46.704590" lon="8.812414"><ele>1888.65</ele><time>2013-08-04T07:19:13Z</time></trkpt><trkpt lat="46.704605" lon="8.812359"><ele>1889.61</ele><time>2013-08-04T07:19:21Z</time></trkpt><trkpt lat="46.704617" lon="8.812269"><ele>1890.09</ele><time>2013-08-04T07:19:29Z</time></trkpt><trkpt lat="46.704659" lon="8.812173"><ele>1891.53</ele><time>2013-08-04T07:19:38Z</time></trkpt><trkpt lat="46.704681" lon="8.812119"><ele>1892.49</ele><time>2013-08-04T07:19:45Z</time></trkpt><trkpt lat="46.704735" lon="8.812013"><ele>1893.45</ele><time>2013-08-04T07:19:54Z</time></trkpt><trkpt lat="46.704773" lon="8.811937"><ele>1893.93</ele><time>2013-08-04T07:20:02Z</time></trkpt><trkpt lat="46.704830" lon="8.811872"><ele>1895.38</ele><time>2013-08-04T07:20:11Z</time></trkpt><trkpt lat="46.704880" lon="8.811800"><ele>1896.34</ele><time>2013-08-04T07:20:20Z</time></trkpt><trkpt lat="46.704929" lon="8.811746"><ele>1897.78</ele><time>2013-08-04T07:20:28Z</time></trkpt><trkpt lat="46.704975" lon="8.811679"><ele>1897.30</ele><time>2013-08-04T07:20:36Z</time></trkpt><trkpt lat="46.705032" lon="8.811625"><ele>1899.22</ele><time>2013-08-04T07:20:45Z</time></trkpt><trkpt lat="46.705090" lon="8.811583"><ele>1900.66</ele><time>2013-08-04T07:20:53Z</time></trkpt><trkpt lat="46.705143" lon="8.811516"><ele>1900.66</ele><time>2013-08-04T07:21:01Z</time></trkpt><trkpt lat="46.705170" lon="8.811493"><ele>1901.63</ele><time>2013-08-04T07:21:08Z</time></trkpt><trkpt lat="46.705227" lon="8.811440"><ele>1903.55</ele><time>2013-08-04T07:21:16Z</time></trkpt><trkpt lat="46.705265" lon="8.811397"><ele>1904.51</ele><time>2013-08-04T07:21:23Z</time></trkpt><trkpt lat="46.705311" lon="8.811330"><ele>1905.95</ele><time>2013-08-04T07:21:31Z</time></trkpt><trkpt lat="46.705345" lon="8.811252"><ele>1905.95</ele><time>2013-08-04T07:21:38Z</time></trkpt><trkpt lat="46.705383" lon="8.811173"><ele>1906.43</ele><time>2013-08-04T07:21:46Z</time></trkpt><trkpt lat="46.705383" lon="8.811098"><ele>1907.87</ele><time>2013-08-04T07:21:54Z</time></trkpt><trkpt lat="46.705387" lon="8.811071"><ele>1908.35</ele><time>2013-08-04T07:21:57Z</time></trkpt><trkpt lat="46.705364" lon="8.810973"><ele>1909.80</ele><time>2013-08-04T07:22:05Z</time></trkpt><trkpt lat="46.705364" lon="8.810966"><ele>1910.28</ele><time>2013-08-04T07:22:06Z</time></trkpt><trkpt lat="46.705345" lon="8.810898"><ele>1910.28</ele><time>2013-08-04T07:22:14Z</time></trkpt><trkpt lat="46.705318" lon="8.810818"><ele>1911.24</ele><time>2013-08-04T07:22:21Z</time></trkpt><trkpt lat="46.705299" lon="8.810726"><ele>1912.20</ele><time>2013-08-04T07:22:28Z</time></trkpt><trkpt lat="46.705288" lon="8.810629"><ele>1912.68</ele><time>2013-08-04T07:22:36Z</time></trkpt><trkpt lat="46.705276" lon="8.810548"><ele>1913.64</ele><time>2013-08-04T07:22:43Z</time></trkpt><trkpt lat="46.705257" lon="8.810442"><ele>1914.60</ele><time>2013-08-04T07:22:51Z</time></trkpt><trkpt lat="46.705235" lon="8.810362"><ele>1916.04</ele><time>2013-08-04T07:22:58Z</time></trkpt><trkpt lat="46.705223" lon="8.810278"><ele>1916.04</ele><time>2013-08-04T07:23:05Z</time></trkpt><trkpt lat="46.705204" lon="8.810180"><ele>1917.49</ele><time>2013-08-04T07:23:13Z</time></trkpt><trkpt lat="46.705193" lon="8.810159"><ele>1917.97</ele><time>2013-08-04T07:23:15Z</time></trkpt><trkpt lat="46.705189" lon="8.810096"><ele>1917.97</ele><time>2013-08-04T07:23:22Z</time></trkpt><trkpt lat="46.705173" lon="8.810002"><ele>1918.93</ele><time>2013-08-04T07:23:29Z</time></trkpt><trkpt lat="46.705158" lon="8.809925"><ele>1919.41</ele><time>2013-08-04T07:23:36Z</time></trkpt><trkpt lat="46.705151" lon="8.809829"><ele>1920.37</ele><time>2013-08-04T07:23:43Z</time></trkpt><trkpt lat="46.705143" lon="8.809743"><ele>1922.29</ele><time>2013-08-04T07:23:50Z</time></trkpt><trkpt lat="46.705128" lon="8.809618"><ele>1922.29</ele><time>2013-08-04T07:23:57Z</time></trkpt><trkpt lat="46.705116" lon="8.809537"><ele>1923.74</ele><time>2013-08-04T07:24:04Z</time></trkpt><trkpt lat="46.705112" lon="8.809518"><ele>1923.25</ele><time>2013-08-04T07:24:05Z</time></trkpt><trkpt lat="46.705067" lon="8.809427"><ele>1923.25</ele><time>2013-08-04T07:24:13Z</time></trkpt><trkpt lat="46.705029" lon="8.809325"><ele>1924.22</ele><time>2013-08-04T07:24:20Z</time></trkpt><trkpt lat="46.705021" lon="8.809306"><ele>1924.22</ele><time>2013-08-04T07:24:22Z</time></trkpt><trkpt lat="46.704979" lon="8.809219"><ele>1924.22</ele><time>2013-08-04T07:24:28Z</time></trkpt><trkpt lat="46.704967" lon="8.809191"><ele>1924.22</ele><time>2013-08-04T07:24:30Z</time></trkpt><trkpt lat="46.704960" lon="8.809153"><ele>1924.22</ele><time>2013-08-04T07:24:33Z</time></trkpt><trkpt lat="46.704956" lon="8.809121"><ele>1923.74</ele><time>2013-08-04T07:24:35Z</time></trkpt><trkpt lat="46.704929" lon="8.809007"><ele>1923.74</ele><time>2013-08-04T07:24:43Z</time></trkpt><trkpt lat="46.704910" lon="8.808912"><ele>1924.70</ele><time>2013-08-04T07:24:51Z</time></trkpt><trkpt lat="46.704884" lon="8.808884"><ele>1925.18</ele><time>2013-08-04T07:24:59Z</time></trkpt><trkpt lat="46.704884" lon="8.808884"><ele>1925.18</ele><time>2013-08-04T07:25:19Z</time></trkpt><trkpt lat="46.704865" lon="8.808809"><ele>1925.18</ele><time>2013-08-04T07:25:31Z</time></trkpt><trkpt lat="46.704845" lon="8.808713"><ele>1926.14</ele><time>2013-08-04T07:25:38Z</time></trkpt><trkpt lat="46.704838" lon="8.808647"><ele>1926.62</ele><time>2013-08-04T07:25:46Z</time></trkpt><trkpt lat="46.704826" lon="8.808563"><ele>1929.02</ele><time>2013-08-04T07:25:54Z</time></trkpt><trkpt lat="46.704826" lon="8.808478"><ele>1929.50</ele><time>2013-08-04T07:26:01Z</time></trkpt><trkpt lat="46.704819" lon="8.808413"><ele>1930.46</ele><time>2013-08-04T07:26:08Z</time></trkpt><trkpt lat="46.704819" lon="8.808336"><ele>1931.43</ele><time>2013-08-04T07:26:16Z</time></trkpt><trkpt lat="46.704807" lon="8.808294"><ele>1931.91</ele><time>2013-08-04T07:26:22Z</time></trkpt><trkpt lat="46.704796" lon="8.808206"><ele>1932.87</ele><time>2013-08-04T07:26:30Z</time></trkpt><trkpt lat="46.704781" lon="8.808098"><ele>1933.83</ele><time>2013-08-04T07:26:38Z</time></trkpt><trkpt lat="46.704762" lon="8.808004"><ele>1935.75</ele><time>2013-08-04T07:26:45Z</time></trkpt><trkpt lat="46.704762" lon="8.807998"><ele>1935.75</ele><time>2013-08-04T07:26:46Z</time></trkpt><trkpt lat="46.704762" lon="8.807984"><ele>1934.79</ele><time>2013-08-04T07:26:48Z</time></trkpt><trkpt lat="46.704784" lon="8.807911"><ele>1935.75</ele><time>2013-08-04T07:26:56Z</time></trkpt><trkpt lat="46.704826" lon="8.807878"><ele>1937.67</ele><time>2013-08-04T07:27:03Z</time></trkpt><trkpt lat="46.704876" lon="8.807884"><ele>1939.60</ele><time>2013-08-04T07:27:13Z</time></trkpt><trkpt lat="46.704926" lon="8.807893"><ele>1940.08</ele><time>2013-08-04T07:27:22Z</time></trkpt><trkpt lat="46.704994" lon="8.807912"><ele>1941.52</ele><time>2013-08-04T07:27:30Z</time></trkpt><trkpt lat="46.705044" lon="8.807912"><ele>1942.48</ele><time>2013-08-04T07:27:38Z</time></trkpt><trkpt lat="46.705055" lon="8.807906"><ele>1942.48</ele><time>2013-08-04T07:27:41Z</time></trkpt><trkpt lat="46.705093" lon="8.807880"><ele>1943.92</ele><time>2013-08-04T07:27:50Z</time></trkpt><trkpt lat="46.705120" lon="8.807824"><ele>1944.88</ele><time>2013-08-04T07:27:58Z</time></trkpt><trkpt lat="46.705135" lon="8.807752"><ele>1945.85</ele><time>2013-08-04T07:28:06Z</time></trkpt><trkpt lat="46.705135" lon="8.807693"><ele>1947.77</ele><time>2013-08-04T07:28:13Z</time></trkpt><trkpt lat="46.705132" lon="8.807634"><ele>1948.73</ele><time>2013-08-04T07:28:21Z</time></trkpt><trkpt lat="46.705124" lon="8.807573"><ele>1950.65</ele><time>2013-08-04T07:28:29Z</time></trkpt><trkpt lat="46.705105" lon="8.807505"><ele>1951.13</ele><time>2013-08-04T07:28:36Z</time></trkpt><trkpt lat="46.705097" lon="8.807490"><ele>1951.61</ele><time>2013-08-04T07:28:40Z</time></trkpt><trkpt lat="46.705082" lon="8.807481"><ele>1952.09</ele><time>2013-08-04T07:28:43Z</time></trkpt><trkpt lat="46.705055" lon="8.807402"><ele>1954.02</ele><time>2013-08-04T07:28:52Z</time></trkpt><trkpt lat="46.705048" lon="8.807341"><ele>1954.50</ele><time>2013-08-04T07:29:00Z</time></trkpt><trkpt lat="46.705025" lon="8.807268"><ele>1955.94</ele><time>2013-08-04T07:29:08Z</time></trkpt><trkpt lat="46.705013" lon="8.807210"><ele>1956.42</ele><time>2013-08-04T07:29:16Z</time></trkpt><trkpt lat="46.705009" lon="8.807130"><ele>1956.42</ele><time>2013-08-04T07:29:25Z</time></trkpt><trkpt lat="46.705009" lon="8.807040"><ele>1959.30</ele><time>2013-08-04T07:29:34Z</time></trkpt><trkpt lat="46.705002" lon="8.806961"><ele>1960.27</ele><time>2013-08-04T07:29:43Z</time></trkpt><trkpt lat="46.704994" lon="8.806868"><ele>1961.23</ele><time>2013-08-04T07:29:51Z</time></trkpt><trkpt lat="46.704983" lon="8.806785"><ele>1961.71</ele><time>2013-08-04T07:29:59Z</time></trkpt><trkpt lat="46.704983" lon="8.806773"><ele>1961.71</ele><time>2013-08-04T07:30:00Z</time></trkpt><trkpt lat="46.704983" lon="8.806694"><ele>1961.23</ele><time>2013-08-04T07:30:05Z</time></trkpt><trkpt lat="46.704987" lon="8.806597"><ele>1962.19</ele><time>2013-08-04T07:30:13Z</time></trkpt><trkpt lat="46.704983" lon="8.806504"><ele>1962.19</ele><time>2013-08-04T07:30:21Z</time></trkpt><trkpt lat="46.704987" lon="8.806435"><ele>1963.15</ele><time>2013-08-04T07:30:29Z</time></trkpt><trkpt lat="46.704979" lon="8.806371"><ele>1964.11</ele><time>2013-08-04T07:30:38Z</time></trkpt><trkpt lat="46.704983" lon="8.806244"><ele>1965.55</ele><time>2013-08-04T07:30:45Z</time></trkpt><trkpt lat="46.704967" lon="8.806160"><ele>1965.55</ele><time>2013-08-04T07:30:52Z</time></trkpt><trkpt lat="46.704964" lon="8.806073"><ele>1966.03</ele><time>2013-08-04T07:31:00Z</time></trkpt><trkpt lat="46.704956" lon="8.805988"><ele>1966.51</ele><time>2013-08-04T07:31:07Z</time></trkpt><trkpt lat="46.704964" lon="8.805926"><ele>1966.99</ele><time>2013-08-04T07:31:14Z</time></trkpt><trkpt lat="46.704964" lon="8.805837"><ele>1967.96</ele><time>2013-08-04T07:31:21Z</time></trkpt><trkpt lat="46.704945" lon="8.805720"><ele>1967.96</ele><time>2013-08-04T07:31:29Z</time></trkpt><trkpt lat="46.704933" lon="8.805660"><ele>1968.92</ele><time>2013-08-04T07:31:37Z</time></trkpt><trkpt lat="46.704933" lon="8.805605"><ele>1969.40</ele><time>2013-08-04T07:31:45Z</time></trkpt><trkpt lat="46.704929" lon="8.805540"><ele>1971.32</ele><time>2013-08-04T07:31:52Z</time></trkpt><trkpt lat="46.704929" lon="8.805438"><ele>1971.80</ele><time>2013-08-04T07:31:59Z</time></trkpt><trkpt lat="46.704918" lon="8.805348"><ele>1972.28</ele><time>2013-08-04T07:32:06Z</time></trkpt><trkpt lat="46.704903" lon="8.805255"><ele>1973.72</ele><time>2013-08-04T07:32:14Z</time></trkpt><trkpt lat="46.704899" lon="8.805200"><ele>1974.69</ele><time>2013-08-04T07:32:23Z</time></trkpt><trkpt lat="46.704891" lon="8.805133"><ele>1975.17</ele><time>2013-08-04T07:32:31Z</time></trkpt><trkpt lat="46.704887" lon="8.805056"><ele>1976.13</ele><time>2013-08-04T07:32:38Z</time></trkpt><trkpt lat="46.704876" lon="8.804988"><ele>1977.57</ele><time>2013-08-04T07:32:46Z</time></trkpt><trkpt lat="46.704865" lon="8.804934"><ele>1978.05</ele><time>2013-08-04T07:32:53Z</time></trkpt><trkpt lat="46.704849" lon="8.804864"><ele>1979.01</ele><time>2013-08-04T07:33:00Z</time></trkpt><trkpt lat="46.704849" lon="8.804765"><ele>1979.49</ele><time>2013-08-04T07:33:08Z</time></trkpt><trkpt lat="46.704845" lon="8.804715"><ele>1980.93</ele><time>2013-08-04T07:33:16Z</time></trkpt><trkpt lat="46.704865" lon="8.804640"><ele>1981.90</ele><time>2013-08-04T07:33:24Z</time></trkpt><trkpt lat="46.704903" lon="8.804624"><ele>1983.34</ele><time>2013-08-04T07:33:33Z</time></trkpt><trkpt lat="46.704945" lon="8.804655"><ele>1984.78</ele><time>2013-08-04T07:33:42Z</time></trkpt><trkpt lat="46.704983" lon="8.804690"><ele>1985.74</ele><time>2013-08-04T07:33:50Z</time></trkpt><trkpt lat="46.705025" lon="8.804715"><ele>1986.70</ele><time>2013-08-04T07:33:58Z</time></trkpt><trkpt lat="46.705067" lon="8.804738"><ele>1987.66</ele><time>2013-08-04T07:34:05Z</time></trkpt><trkpt lat="46.705132" lon="8.804754"><ele>1988.62</ele><time>2013-08-04T07:34:13Z</time></trkpt><trkpt lat="46.705166" lon="8.804753"><ele>1989.10</ele><time>2013-08-04T07:34:20Z</time></trkpt><trkpt lat="46.705215" lon="8.804772"><ele>1990.55</ele><time>2013-08-04T07:34:28Z</time></trkpt><trkpt lat="46.705250" lon="8.804794"><ele>1991.99</ele><time>2013-08-04T07:34:36Z</time></trkpt><trkpt lat="46.705292" lon="8.804817"><ele>1991.99</ele><time>2013-08-04T07:34:43Z</time></trkpt><trkpt lat="46.705338" lon="8.804837"><ele>1993.91</ele><time>2013-08-04T07:34:51Z</time></trkpt><trkpt lat="46.705402" lon="8.804841"><ele>1994.87</ele><time>2013-08-04T07:35:01Z</time></trkpt><trkpt lat="46.705444" lon="8.804844"><ele>1996.32</ele><time>2013-08-04T07:35:08Z</time></trkpt><trkpt lat="46.705471" lon="8.804822"><ele>1996.80</ele><time>2013-08-04T07:35:17Z</time></trkpt><trkpt lat="46.705486" lon="8.804795"><ele>1997.76</ele><time>2013-08-04T07:35:21Z</time></trkpt><trkpt lat="46.705502" lon="8.804756"><ele>1999.68</ele><time>2013-08-04T07:35:30Z</time></trkpt><trkpt lat="46.705502" lon="8.804705"><ele>2000.64</ele><time>2013-08-04T07:35:38Z</time></trkpt><trkpt lat="46.705494" lon="8.804674"><ele>2001.12</ele><time>2013-08-04T07:35:46Z</time></trkpt><trkpt lat="46.705486" lon="8.804632"><ele>2002.56</ele><time>2013-08-04T07:35:54Z</time></trkpt><trkpt lat="46.705479" lon="8.804585"><ele>2004.01</ele><time>2013-08-04T07:36:02Z</time></trkpt><trkpt lat="46.705482" lon="8.804508"><ele>2004.97</ele><time>2013-08-04T07:36:11Z</time></trkpt><trkpt lat="46.705482" lon="8.804483"><ele>2005.45</ele><time>2013-08-04T07:36:20Z</time></trkpt><trkpt lat="46.705490" lon="8.804436"><ele>2006.41</ele><time>2013-08-04T07:36:36Z</time></trkpt><trkpt lat="46.705513" lon="8.804383"><ele>2007.85</ele><time>2013-08-04T07:36:44Z</time></trkpt><trkpt lat="46.705547" lon="8.804347"><ele>2008.81</ele><time>2013-08-04T07:36:52Z</time></trkpt><trkpt lat="46.705593" lon="8.804321"><ele>2010.25</ele><time>2013-08-04T07:37:00Z</time></trkpt><trkpt lat="46.705631" lon="8.804289"><ele>2011.70</ele><time>2013-08-04T07:37:07Z</time></trkpt><trkpt lat="46.705658" lon="8.804256"><ele>2012.18</ele><time>2013-08-04T07:37:15Z</time></trkpt><trkpt lat="46.705704" lon="8.804189"><ele>2014.10</ele><time>2013-08-04T07:37:24Z</time></trkpt><trkpt lat="46.705719" lon="8.804155"><ele>2015.06</ele><time>2013-08-04T07:37:32Z</time></trkpt><trkpt lat="46.705730" lon="8.804095"><ele>2016.50</ele><time>2013-08-04T07:37:41Z</time></trkpt><trkpt lat="46.705738" lon="8.804033"><ele>2017.46</ele><time>2013-08-04T07:37:49Z</time></trkpt><trkpt lat="46.705738" lon="8.803985"><ele>2018.43</ele><time>2013-08-04T07:37:59Z</time></trkpt><trkpt lat="46.705730" lon="8.803932"><ele>2019.39</ele><time>2013-08-04T07:38:07Z</time></trkpt><trkpt lat="46.705730" lon="8.803891"><ele>2020.83</ele><time>2013-08-04T07:38:15Z</time></trkpt><trkpt lat="46.705727" lon="8.803844"><ele>2021.79</ele><time>2013-08-04T07:38:23Z</time></trkpt><trkpt lat="46.705723" lon="8.803774"><ele>2022.75</ele><time>2013-08-04T07:38:31Z</time></trkpt><trkpt lat="46.705700" lon="8.803710"><ele>2024.19</ele><time>2013-08-04T07:38:39Z</time></trkpt><trkpt lat="46.705688" lon="8.803672"><ele>2024.67</ele><time>2013-08-04T07:38:46Z</time></trkpt><trkpt lat="46.705677" lon="8.803624"><ele>2026.12</ele><time>2013-08-04T07:38:55Z</time></trkpt><trkpt lat="46.705650" lon="8.803557"><ele>2028.04</ele><time>2013-08-04T07:39:03Z</time></trkpt><trkpt lat="46.705643" lon="8.803551"><ele>2028.04</ele><time>2013-08-04T07:39:12Z</time></trkpt><trkpt lat="46.705643" lon="8.803551"><ele>2028.04</ele><time>2013-08-04T07:39:40Z</time></trkpt><trkpt lat="46.705631" lon="8.803506"><ele>2029.48</ele><time>2013-08-04T07:39:56Z</time></trkpt><trkpt lat="46.705608" lon="8.803446"><ele>2029.48</ele><time>2013-08-04T07:40:04Z</time></trkpt><trkpt lat="46.705570" lon="8.803365"><ele>2030.92</ele><time>2013-08-04T07:40:12Z</time></trkpt><trkpt lat="46.705540" lon="8.803284"><ele>2031.40</ele><time>2013-08-04T07:40:21Z</time></trkpt><trkpt lat="46.705521" lon="8.803228"><ele>2032.36</ele><time>2013-08-04T07:40:28Z</time></trkpt><trkpt lat="46.705479" lon="8.803135"><ele>2032.84</ele><time>2013-08-04T07:40:36Z</time></trkpt><trkpt lat="46.705463" lon="8.803087"><ele>2034.29</ele><time>2013-08-04T07:40:44Z</time></trkpt><trkpt lat="46.705444" lon="8.803036"><ele>2035.25</ele><time>2013-08-04T07:40:51Z</time></trkpt><trkpt lat="46.705433" lon="8.802977"><ele>2035.73</ele><time>2013-08-04T07:40:58Z</time></trkpt><trkpt lat="46.705425" lon="8.802924"><ele>2036.69</ele><time>2013-08-04T07:41:06Z</time></trkpt><trkpt lat="46.705414" lon="8.802869"><ele>2038.13</ele><time>2013-08-04T07:41:13Z</time></trkpt><trkpt lat="46.705414" lon="8.802821"><ele>2038.61</ele><time>2013-08-04T07:41:21Z</time></trkpt><trkpt lat="46.705414" lon="8.802745"><ele>2039.57</ele><time>2013-08-04T07:41:29Z</time></trkpt><trkpt lat="46.705418" lon="8.802691"><ele>2041.50</ele><time>2013-08-04T07:41:39Z</time></trkpt><trkpt lat="46.705421" lon="8.802629"><ele>2042.94</ele><time>2013-08-04T07:41:48Z</time></trkpt><trkpt lat="46.705418" lon="8.802579"><ele>2043.42</ele><time>2013-08-04T07:41:55Z</time></trkpt><trkpt lat="46.705406" lon="8.802529"><ele>2044.86</ele><time>2013-08-04T07:42:02Z</time></trkpt><trkpt lat="46.705399" lon="8.802467"><ele>2045.82</ele><time>2013-08-04T07:42:09Z</time></trkpt><trkpt lat="46.705399" lon="8.802397"><ele>2047.26</ele><time>2013-08-04T07:42:17Z</time></trkpt><trkpt lat="46.705387" lon="8.802301"><ele>2048.71</ele><time>2013-08-04T07:42:26Z</time></trkpt><trkpt lat="46.705391" lon="8.802247"><ele>2049.19</ele><time>2013-08-04T07:42:34Z</time></trkpt><trkpt lat="46.705387" lon="8.802172"><ele>2050.15</ele><time>2013-08-04T07:42:42Z</time></trkpt><trkpt lat="46.705376" lon="8.802107"><ele>2050.63</ele><time>2013-08-04T07:42:49Z</time></trkpt><trkpt lat="46.705372" lon="8.802027"><ele>2052.07</ele><time>2013-08-04T07:42:57Z</time></trkpt><trkpt lat="46.705360" lon="8.801961"><ele>2053.03</ele><time>2013-08-04T07:43:06Z</time></trkpt><trkpt lat="46.705345" lon="8.801913"><ele>2053.51</ele><time>2013-08-04T07:43:14Z</time></trkpt><trkpt lat="46.705322" lon="8.801835"><ele>2054.47</ele><time>2013-08-04T07:43:22Z</time></trkpt><trkpt lat="46.705307" lon="8.801759"><ele>2054.96</ele><time>2013-08-04T07:43:30Z</time></trkpt><trkpt lat="46.705303" lon="8.801688"><ele>2056.40</ele><time>2013-08-04T07:43:38Z</time></trkpt><trkpt lat="46.705318" lon="8.801607"><ele>2056.88</ele><time>2013-08-04T07:43:46Z</time></trkpt><trkpt lat="46.705334" lon="8.801579"><ele>2058.32</ele><time>2013-08-04T07:43:53Z</time></trkpt><trkpt lat="46.705379" lon="8.801561"><ele>2059.28</ele><time>2013-08-04T07:44:01Z</time></trkpt><trkpt lat="46.705410" lon="8.801549"><ele>2059.76</ele><time>2013-08-04T07:44:08Z</time></trkpt><trkpt lat="46.705448" lon="8.801558"><ele>2061.20</ele><time>2013-08-04T07:44:16Z</time></trkpt><trkpt lat="46.705490" lon="8.801593"><ele>2062.65</ele><time>2013-08-04T07:44:25Z</time></trkpt><trkpt lat="46.705521" lon="8.801609"><ele>2063.61</ele><time>2013-08-04T07:44:34Z</time></trkpt><trkpt lat="46.705574" lon="8.801639"><ele>2064.57</ele><time>2013-08-04T07:44:42Z</time></trkpt><trkpt lat="46.705620" lon="8.801663"><ele>2065.53</ele><time>2013-08-04T07:44:50Z</time></trkpt><trkpt lat="46.705658" lon="8.801680"><ele>2067.45</ele><time>2013-08-04T07:44:59Z</time></trkpt><trkpt lat="46.705692" lon="8.801708"><ele>2068.89</ele><time>2013-08-04T07:45:08Z</time></trkpt><trkpt lat="46.705746" lon="8.801752"><ele>2069.86</ele><time>2013-08-04T07:45:18Z</time></trkpt><trkpt lat="46.705795" lon="8.801781"><ele>2070.34</ele><time>2013-08-04T07:45:26Z</time></trkpt><trkpt lat="46.705860" lon="8.801827"><ele>2070.34</ele><time>2013-08-04T07:45:38Z</time></trkpt><trkpt lat="46.705910" lon="8.801867"><ele>2071.78</ele><time>2013-08-04T07:45:48Z</time></trkpt><trkpt lat="46.705967" lon="8.801919"><ele>2072.26</ele><time>2013-08-04T07:45:56Z</time></trkpt><trkpt lat="46.706005" lon="8.801932"><ele>2073.22</ele><time>2013-08-04T07:46:04Z</time></trkpt><trkpt lat="46.706036" lon="8.801912"><ele>2074.66</ele><time>2013-08-04T07:46:12Z</time></trkpt><trkpt lat="46.706059" lon="8.801878"><ele>2075.14</ele><time>2013-08-04T07:46:19Z</time></trkpt><trkpt lat="46.706070" lon="8.801844"><ele>2076.59</ele><time>2013-08-04T07:46:27Z</time></trkpt><trkpt lat="46.706070" lon="8.801788"><ele>2077.55</ele><time>2013-08-04T07:46:35Z</time></trkpt><trkpt lat="46.706066" lon="8.801724"><ele>2078.51</ele><time>2013-08-04T07:46:43Z</time></trkpt><trkpt lat="46.706062" lon="8.801688"><ele>2079.95</ele><time>2013-08-04T07:46:51Z</time></trkpt><trkpt lat="46.706055" lon="8.801652"><ele>2080.91</ele><time>2013-08-04T07:46:57Z</time></trkpt><trkpt lat="46.706059" lon="8.801609"><ele>2080.91</ele><time>2013-08-04T07:47:04Z</time></trkpt><trkpt lat="46.706043" lon="8.801522"><ele>2082.35</ele><time>2013-08-04T07:47:12Z</time></trkpt><trkpt lat="46.706036" lon="8.801461"><ele>2082.83</ele><time>2013-08-04T07:47:19Z</time></trkpt><trkpt lat="46.706028" lon="8.801441"><ele>2083.79</ele><time>2013-08-04T07:47:28Z</time></trkpt><trkpt lat="46.706032" lon="8.801388"><ele>2083.79</ele><time>2013-08-04T07:47:38Z</time></trkpt><trkpt lat="46.706043" lon="8.801301"><ele>2085.72</ele><time>2013-08-04T07:47:47Z</time></trkpt><trkpt lat="46.706055" lon="8.801242"><ele>2086.68</ele><time>2013-08-04T07:47:55Z</time></trkpt><trkpt lat="46.706066" lon="8.801158"><ele>2087.64</ele><time>2013-08-04T07:48:02Z</time></trkpt><trkpt lat="46.706070" lon="8.801091"><ele>2089.08</ele><time>2013-08-04T07:48:10Z</time></trkpt><trkpt lat="46.706066" lon="8.801027"><ele>2089.08</ele><time>2013-08-04T07:48:17Z</time></trkpt><trkpt lat="46.706066" lon="8.800957"><ele>2090.52</ele><time>2013-08-04T07:48:26Z</time></trkpt><trkpt lat="46.706070" lon="8.800884"><ele>2091.49</ele><time>2013-08-04T07:48:34Z</time></trkpt><trkpt lat="46.706070" lon="8.800832"><ele>2092.93</ele><time>2013-08-04T07:48:41Z</time></trkpt><trkpt lat="46.706070" lon="8.800761"><ele>2093.41</ele><time>2013-08-04T07:48:51Z</time></trkpt><trkpt lat="46.706062" lon="8.800739"><ele>2093.89</ele><time>2013-08-04T07:48:59Z</time></trkpt><trkpt lat="46.706055" lon="8.800665"><ele>2094.85</ele><time>2013-08-04T07:49:06Z</time></trkpt><trkpt lat="46.706055" lon="8.800615"><ele>2096.29</ele><time>2013-08-04T07:49:14Z</time></trkpt><trkpt lat="46.706051" lon="8.800551"><ele>2097.73</ele><time>2013-08-04T07:49:23Z</time></trkpt><trkpt lat="46.706051" lon="8.800487"><ele>2099.18</ele><time>2013-08-04T07:49:31Z</time></trkpt><trkpt lat="46.706059" lon="8.800425"><ele>2099.66</ele><time>2013-08-04T07:49:40Z</time></trkpt><trkpt lat="46.706059" lon="8.800385"><ele>2101.58</ele><time>2013-08-04T07:49:47Z</time></trkpt><trkpt lat="46.706059" lon="8.800324"><ele>2102.06</ele><time>2013-08-04T07:49:55Z</time></trkpt><trkpt lat="46.706051" lon="8.800282"><ele>2104.94</ele><time>2013-08-04T07:50:06Z</time></trkpt><trkpt lat="46.706043" lon="8.800230"><ele>2105.42</ele><time>2013-08-04T07:50:14Z</time></trkpt><trkpt lat="46.706039" lon="8.800174"><ele>2107.35</ele><time>2013-08-04T07:50:23Z</time></trkpt><trkpt lat="46.706047" lon="8.800118"><ele>2107.83</ele><time>2013-08-04T07:50:31Z</time></trkpt><trkpt lat="46.706070" lon="8.800062"><ele>2108.79</ele><time>2013-08-04T07:50:40Z</time></trkpt><trkpt lat="46.706104" lon="8.800050"><ele>2110.23</ele><time>2013-08-04T07:50:48Z</time></trkpt><trkpt lat="46.706139" lon="8.800061"><ele>2110.71</ele><time>2013-08-04T07:50:58Z</time></trkpt><trkpt lat="46.706181" lon="8.800096"><ele>2112.15</ele><time>2013-08-04T07:51:07Z</time></trkpt><trkpt lat="46.706238" lon="8.800162"><ele>2112.15</ele><time>2013-08-04T07:51:16Z</time></trkpt><trkpt lat="46.706284" lon="8.800216"><ele>2112.63</ele><time>2013-08-04T07:51:25Z</time></trkpt><trkpt lat="46.706356" lon="8.800267"><ele>2113.60</ele><time>2013-08-04T07:51:33Z</time></trkpt><trkpt lat="46.706398" lon="8.800256"><ele>2114.08</ele><time>2013-08-04T07:51:40Z</time></trkpt><trkpt lat="46.706432" lon="8.800200"><ele>2115.04</ele><time>2013-08-04T07:51:50Z</time></trkpt><trkpt lat="46.706417" lon="8.800125"><ele>2116.48</ele><time>2013-08-04T07:51:58Z</time></trkpt><trkpt lat="46.706421" lon="8.800082"><ele>2117.92</ele><time>2013-08-04T07:52:05Z</time></trkpt><trkpt lat="46.706417" lon="8.800035"><ele>2118.88</ele><time>2013-08-04T07:52:13Z</time></trkpt><trkpt lat="46.706417" lon="8.799987"><ele>2119.84</ele><time>2013-08-04T07:52:21Z</time></trkpt><trkpt lat="46.706413" lon="8.799951"><ele>2121.29</ele><time>2013-08-04T07:52:29Z</time></trkpt><trkpt lat="46.706413" lon="8.799886"><ele>2122.25</ele><time>2013-08-04T07:52:37Z</time></trkpt><trkpt lat="46.706413" lon="8.799835"><ele>2123.21</ele><time>2013-08-04T07:52:45Z</time></trkpt><trkpt lat="46.706413" lon="8.799780"><ele>2125.13</ele><time>2013-08-04T07:52:54Z</time></trkpt><trkpt lat="46.706425" lon="8.799737"><ele>2126.09</ele><time>2013-08-04T07:53:03Z</time></trkpt><trkpt lat="46.706432" lon="8.799673"><ele>2127.53</ele><time>2013-08-04T07:53:12Z</time></trkpt><trkpt lat="46.706440" lon="8.799614"><ele>2128.98</ele><time>2013-08-04T07:53:22Z</time></trkpt><trkpt lat="46.706455" lon="8.799566"><ele>2129.46</ele><time>2013-08-04T07:53:29Z</time></trkpt><trkpt lat="46.706451" lon="8.799519"><ele>2130.42</ele><time>2013-08-04T07:53:37Z</time></trkpt><trkpt lat="46.706455" lon="8.799472"><ele>2131.86</ele><time>2013-08-04T07:53:44Z</time></trkpt><trkpt lat="46.706470" lon="8.799417"><ele>2132.82</ele><time>2013-08-04T07:53:52Z</time></trkpt><trkpt lat="46.706482" lon="8.799366"><ele>2134.26</ele><time>2013-08-04T07:54:00Z</time></trkpt><trkpt lat="46.706490" lon="8.799330"><ele>2135.71</ele><time>2013-08-04T07:54:08Z</time></trkpt><trkpt lat="46.706497" lon="8.799232"><ele>2136.19</ele><time>2013-08-04T07:54:16Z</time></trkpt><trkpt lat="46.706490" lon="8.799168"><ele>2137.15</ele><time>2013-08-04T07:54:24Z</time></trkpt><trkpt lat="46.706470" lon="8.799119"><ele>2138.59</ele><time>2013-08-04T07:54:31Z</time></trkpt><trkpt lat="46.706459" lon="8.799052"><ele>2140.03</ele><time>2013-08-04T07:54:38Z</time></trkpt><trkpt lat="46.706444" lon="8.799004"><ele>2140.03</ele><time>2013-08-04T07:54:46Z</time></trkpt><trkpt lat="46.706432" lon="8.798940"><ele>2141.95</ele><time>2013-08-04T07:54:54Z</time></trkpt><trkpt lat="46.706413" lon="8.798883"><ele>2142.44</ele><time>2013-08-04T07:55:02Z</time></trkpt><trkpt lat="46.706402" lon="8.798803"><ele>2144.36</ele><time>2013-08-04T07:55:10Z</time></trkpt><trkpt lat="46.706387" lon="8.798710"><ele>2144.84</ele><time>2013-08-04T07:55:17Z</time></trkpt><trkpt lat="46.706375" lon="8.798598"><ele>2144.84</ele><time>2013-08-04T07:55:24Z</time></trkpt><trkpt lat="46.706390" lon="8.798561"><ele>2145.80</ele><time>2013-08-04T07:55:28Z</time></trkpt><trkpt lat="46.706440" lon="8.798475"><ele>2146.28</ele><time>2013-08-04T07:55:36Z</time></trkpt><trkpt lat="46.706451" lon="8.798411"><ele>2147.24</ele><time>2013-08-04T07:55:44Z</time></trkpt><trkpt lat="46.706467" lon="8.798343"><ele>2148.20</ele><time>2013-08-04T07:55:53Z</time></trkpt><trkpt lat="46.706478" lon="8.798291"><ele>2149.16</ele><time>2013-08-04T07:56:01Z</time></trkpt><trkpt lat="46.706497" lon="8.798248"><ele>2149.65</ele><time>2013-08-04T07:56:09Z</time></trkpt><trkpt lat="46.706505" lon="8.798170"><ele>2151.09</ele><time>2013-08-04T07:56:16Z</time></trkpt><trkpt lat="46.706516" lon="8.798068"><ele>2152.53</ele><time>2013-08-04T07:56:24Z</time></trkpt><trkpt lat="46.706532" lon="8.797997"><ele>2153.97</ele><time>2013-08-04T07:56:31Z</time></trkpt><trkpt lat="46.706528" lon="8.797931"><ele>2154.93</ele><time>2013-08-04T07:56:38Z</time></trkpt><trkpt lat="46.706532" lon="8.797851"><ele>2155.89</ele><time>2013-08-04T07:56:45Z</time></trkpt><trkpt lat="46.706551" lon="8.797741"><ele>2156.86</ele><time>2013-08-04T07:56:52Z</time></trkpt><trkpt lat="46.706570" lon="8.797641"><ele>2157.34</ele><time>2013-08-04T07:56:59Z</time></trkpt><trkpt lat="46.706585" lon="8.797596"><ele>2157.34</ele><time>2013-08-04T07:57:03Z</time></trkpt><trkpt lat="46.706593" lon="8.797559"><ele>2157.82</ele><time>2013-08-04T07:57:06Z</time></trkpt><trkpt lat="46.706615" lon="8.797434"><ele>2157.34</ele><time>2013-08-04T07:57:15Z</time></trkpt><trkpt lat="46.706623" lon="8.797421"><ele>2158.30</ele><time>2013-08-04T07:57:29Z</time></trkpt><trkpt lat="46.706623" lon="8.797421"><ele>2158.30</ele><time>2013-08-04T07:57:36Z</time></trkpt><trkpt lat="46.706635" lon="8.797421"><ele>2157.82</ele><time>2013-08-04T07:57:53Z</time></trkpt><trkpt lat="46.706635" lon="8.797423"><ele>2158.78</ele><time>2013-08-04T07:58:19Z</time></trkpt><trkpt lat="46.706635" lon="8.797423"><ele>2158.78</ele><time>2013-08-04T07:58:52Z</time></trkpt><trkpt lat="46.706646" lon="8.797424"><ele>2158.78</ele><time>2013-08-04T07:59:07Z</time></trkpt><trkpt lat="46.706715" lon="8.797470"><ele>2158.30</ele><time>2013-08-04T07:59:14Z</time></trkpt><trkpt lat="46.706715" lon="8.797463"><ele>2157.82</ele><time>2013-08-04T07:59:34Z</time></trkpt><trkpt lat="46.706772" lon="8.797485"><ele>2157.82</ele><time>2013-08-04T07:59:44Z</time></trkpt><trkpt lat="46.706818" lon="8.797531"><ele>2158.30</ele><time>2013-08-04T07:59:48Z</time></trkpt><trkpt lat="46.706863" lon="8.797596"><ele>2158.78</ele><time>2013-08-04T07:59:56Z</time></trkpt><trkpt lat="46.706886" lon="8.797647"><ele>2159.26</ele><time>2013-08-04T08:00:01Z</time></trkpt><trkpt lat="46.706932" lon="8.797717"><ele>2159.26</ele><time>2013-08-04T08:00:09Z</time></trkpt><trkpt lat="46.706970" lon="8.797802"><ele>2159.74</ele><time>2013-08-04T08:00:17Z</time></trkpt><trkpt lat="46.707012" lon="8.797864"><ele>2159.26</ele><time>2013-08-04T08:00:23Z</time></trkpt><trkpt lat="46.707027" lon="8.797889"><ele>2160.22</ele><time>2013-08-04T08:00:25Z</time></trkpt><trkpt lat="46.707008" lon="8.797958"><ele>2160.22</ele><time>2013-08-04T08:00:30Z</time></trkpt><trkpt lat="46.707043" lon="8.798002"><ele>2161.18</ele><time>2013-08-04T08:00:38Z</time></trkpt><trkpt lat="46.707050" lon="8.798045"><ele>2160.70</ele><time>2013-08-04T08:00:42Z</time></trkpt><trkpt lat="46.707020" lon="8.798153"><ele>2159.74</ele><time>2013-08-04T08:00:50Z</time></trkpt><trkpt lat="46.707008" lon="8.798222"><ele>2159.26</ele><time>2013-08-04T08:01:00Z</time></trkpt><trkpt lat="46.707005" lon="8.798258"><ele>2158.78</ele><time>2013-08-04T08:01:03Z</time></trkpt><trkpt lat="46.707008" lon="8.798323"><ele>2158.78</ele><time>2013-08-04T08:01:08Z</time></trkpt><trkpt lat="46.706982" lon="8.798429"><ele>2157.82</ele><time>2013-08-04T08:01:17Z</time></trkpt><trkpt lat="46.706940" lon="8.798583"><ele>2156.86</ele><time>2013-08-04T08:01:27Z</time></trkpt><trkpt lat="46.706932" lon="8.798676"><ele>2156.86</ele><time>2013-08-04T08:01:34Z</time></trkpt><trkpt lat="46.706924" lon="8.798712"><ele>2156.37</ele><time>2013-08-04T08:01:37Z</time></trkpt><trkpt lat="46.706932" lon="8.798780"><ele>2156.37</ele><time>2013-08-04T08:01:41Z</time></trkpt><trkpt lat="46.706955" lon="8.798896"><ele>2156.86</ele><time>2013-08-04T08:01:50Z</time></trkpt><trkpt lat="46.706970" lon="8.798980"><ele>2156.37</ele><time>2013-08-04T08:01:56Z</time></trkpt><trkpt lat="46.706970" lon="8.799097"><ele>2155.89</ele><time>2013-08-04T08:02:06Z</time></trkpt><trkpt lat="46.706989" lon="8.799183"><ele>2155.41</ele><time>2013-08-04T08:02:12Z</time></trkpt><trkpt lat="46.707024" lon="8.799287"><ele>2155.41</ele><time>2013-08-04T08:02:20Z</time></trkpt><trkpt lat="46.707073" lon="8.799275"><ele>2154.93</ele><time>2013-08-04T08:02:25Z</time></trkpt><trkpt lat="46.707104" lon="8.799354"><ele>2153.97</ele><time>2013-08-04T08:02:35Z</time></trkpt><trkpt lat="46.707085" lon="8.799472"><ele>2152.53</ele><time>2013-08-04T08:02:45Z</time></trkpt><trkpt lat="46.707062" lon="8.799543"><ele>2152.05</ele><time>2013-08-04T08:02:51Z</time></trkpt><trkpt lat="46.707088" lon="8.799653"><ele>2151.09</ele><time>2013-08-04T08:02:59Z</time></trkpt><trkpt lat="46.707088" lon="8.799741"><ele>2151.57</ele><time>2013-08-04T08:03:06Z</time></trkpt><trkpt lat="46.707085" lon="8.799800"><ele>2152.05</ele><time>2013-08-04T08:03:14Z</time></trkpt><trkpt lat="46.707085" lon="8.799800"><ele>2152.53</ele><time>2013-08-04T08:03:35Z</time></trkpt><trkpt lat="46.707077" lon="8.799814"><ele>2153.49</ele><time>2013-08-04T08:03:58Z</time></trkpt><trkpt lat="46.707069" lon="8.799933"><ele>2152.05</ele><time>2013-08-04T08:04:06Z</time></trkpt><trkpt lat="46.707069" lon="8.800005"><ele>2153.49</ele><time>2013-08-04T08:04:11Z</time></trkpt><trkpt lat="46.707066" lon="8.800044"><ele>2153.01</ele><time>2013-08-04T08:04:14Z</time></trkpt><trkpt lat="46.707066" lon="8.800183"><ele>2153.01</ele><time>2013-08-04T08:04:22Z</time></trkpt><trkpt lat="46.707050" lon="8.800255"><ele>2152.53</ele><time>2013-08-04T08:04:27Z</time></trkpt><trkpt lat="46.707050" lon="8.800321"><ele>2153.01</ele><time>2013-08-04T08:04:32Z</time></trkpt><trkpt lat="46.707047" lon="8.800479"><ele>2153.01</ele><time>2013-08-04T08:04:40Z</time></trkpt><trkpt lat="46.707043" lon="8.800574"><ele>2153.01</ele><time>2013-08-04T08:04:48Z</time></trkpt><trkpt lat="46.707039" lon="8.800664"><ele>2153.01</ele><time>2013-08-04T08:04:54Z</time></trkpt><trkpt lat="46.707024" lon="8.800784"><ele>2153.97</ele><time>2013-08-04T08:05:01Z</time></trkpt><trkpt lat="46.707027" lon="8.800926"><ele>2153.49</ele><time>2013-08-04T08:05:09Z</time></trkpt><trkpt lat="46.707001" lon="8.801008"><ele>2152.53</ele><time>2013-08-04T08:05:18Z</time></trkpt><trkpt lat="46.707005" lon="8.801075"><ele>2151.57</ele><time>2013-08-04T08:05:32Z</time></trkpt><trkpt lat="46.707005" lon="8.801119"><ele>2152.05</ele><time>2013-08-04T08:05:36Z</time></trkpt><trkpt lat="46.707008" lon="8.801188"><ele>2151.57</ele><time>2013-08-04T08:05:41Z</time></trkpt><trkpt lat="46.707012" lon="8.801280"><ele>2152.05</ele><time>2013-08-04T08:05:47Z</time></trkpt><trkpt lat="46.707058" lon="8.801386"><ele>2151.09</ele><time>2013-08-04T08:05:55Z</time></trkpt><trkpt lat="46.707062" lon="8.801404"><ele>2150.61</ele><time>2013-08-04T08:05:57Z</time></trkpt><trkpt lat="46.707073" lon="8.801507"><ele>2149.65</ele><time>2013-08-04T08:06:06Z</time></trkpt><trkpt lat="46.707115" lon="8.801594"><ele>2148.20</ele><time>2013-08-04T08:06:15Z</time></trkpt><trkpt lat="46.707127" lon="8.801664"><ele>2147.24</ele><time>2013-08-04T08:06:24Z</time></trkpt><trkpt lat="46.707127" lon="8.801664"><ele>2146.76</ele><time>2013-08-04T08:06:52Z</time></trkpt><trkpt lat="46.707165" lon="8.801771"><ele>2145.32</ele><time>2013-08-04T08:07:06Z</time></trkpt><trkpt lat="46.707165" lon="8.801807"><ele>2145.32</ele><time>2013-08-04T08:07:09Z</time></trkpt><trkpt lat="46.707172" lon="8.801855"><ele>2144.36</ele><time>2013-08-04T08:07:13Z</time></trkpt><trkpt lat="46.707211" lon="8.801990"><ele>2143.40</ele><time>2013-08-04T08:07:22Z</time></trkpt><trkpt lat="46.707211" lon="8.802025"><ele>2142.92</ele><time>2013-08-04T08:07:25Z</time></trkpt><trkpt lat="46.707230" lon="8.802133"><ele>2141.95</ele><time>2013-08-04T08:07:34Z</time></trkpt><trkpt lat="46.707226" lon="8.802157"><ele>2141.47</ele><time>2013-08-04T08:07:38Z</time></trkpt><trkpt lat="46.707249" lon="8.802233"><ele>2140.99</ele><time>2013-08-04T08:07:42Z</time></trkpt><trkpt lat="46.707241" lon="8.802261"><ele>2140.51</ele><time>2013-08-04T08:07:45Z</time></trkpt><trkpt lat="46.707264" lon="8.802362"><ele>2140.51</ele><time>2013-08-04T08:07:54Z</time></trkpt><trkpt lat="46.707287" lon="8.802429"><ele>2140.99</ele><time>2013-08-04T08:07:59Z</time></trkpt><trkpt lat="46.707287" lon="8.802528"><ele>2139.55</ele><time>2013-08-04T08:08:08Z</time></trkpt><trkpt lat="46.707291" lon="8.802625"><ele>2138.11</ele><time>2013-08-04T08:08:14Z</time></trkpt><trkpt lat="46.707302" lon="8.802688"><ele>2138.59</ele><time>2013-08-04T08:08:18Z</time></trkpt><trkpt lat="46.707314" lon="8.802745"><ele>2137.63</ele><time>2013-08-04T08:08:23Z</time></trkpt><trkpt lat="46.707344" lon="8.802855"><ele>2136.67</ele><time>2013-08-04T08:08:33Z</time></trkpt><trkpt lat="46.707344" lon="8.802889"><ele>2135.71</ele><time>2013-08-04T08:08:35Z</time></trkpt><trkpt lat="46.707359" lon="8.802948"><ele>2135.23</ele><time>2013-08-04T08:08:40Z</time></trkpt><trkpt lat="46.707378" lon="8.803048"><ele>2133.78</ele><time>2013-08-04T08:08:51Z</time></trkpt><trkpt lat="46.707417" lon="8.803165"><ele>2132.34</ele><time>2013-08-04T08:08:59Z</time></trkpt><trkpt lat="46.707413" lon="8.803220"><ele>2131.38</ele><time>2013-08-04T08:09:03Z</time></trkpt><trkpt lat="46.707451" lon="8.803314"><ele>2132.34</ele><time>2013-08-04T08:09:12Z</time></trkpt><trkpt lat="46.707474" lon="8.803399"><ele>2130.90</ele><time>2013-08-04T08:09:18Z</time></trkpt><trkpt lat="46.707508" lon="8.803489"><ele>2130.42</ele><time>2013-08-04T08:09:25Z</time></trkpt><trkpt lat="46.707504" lon="8.803528"><ele>2130.42</ele><time>2013-08-04T08:09:27Z</time></trkpt><trkpt lat="46.707508" lon="8.803576"><ele>2130.42</ele><time>2013-08-04T08:09:30Z</time></trkpt><trkpt lat="46.707535" lon="8.803617"><ele>2130.42</ele><time>2013-08-04T08:09:33Z</time></trkpt><trkpt lat="46.707535" lon="8.803641"><ele>2129.46</ele><time>2013-08-04T08:09:35Z</time></trkpt><trkpt lat="46.707535" lon="8.803696"><ele>2130.42</ele><time>2013-08-04T08:09:38Z</time></trkpt><trkpt lat="46.707542" lon="8.803716"><ele>2129.94</ele><time>2013-08-04T08:09:40Z</time></trkpt><trkpt lat="46.707600" lon="8.803772"><ele>2129.46</ele><time>2013-08-04T08:09:48Z</time></trkpt><trkpt lat="46.707600" lon="8.803772"><ele>2129.46</ele><time>2013-08-04T08:10:06Z</time></trkpt><trkpt lat="46.707623" lon="8.803797"><ele>2128.50</ele><time>2013-08-04T08:10:32Z</time></trkpt><trkpt lat="46.707664" lon="8.803872"><ele>2127.05</ele><time>2013-08-04T08:10:41Z</time></trkpt><trkpt lat="46.707680" lon="8.803939"><ele>2127.05</ele><time>2013-08-04T08:10:47Z</time></trkpt><trkpt lat="46.707710" lon="8.804052"><ele>2125.61</ele><time>2013-08-04T08:10:55Z</time></trkpt><trkpt lat="46.707745" lon="8.804155"><ele>2125.61</ele><time>2013-08-04T08:11:03Z</time></trkpt><trkpt lat="46.707764" lon="8.804250"><ele>2123.69</ele><time>2013-08-04T08:11:14Z</time></trkpt><trkpt lat="46.707775" lon="8.804340"><ele>2122.73</ele><time>2013-08-04T08:11:19Z</time></trkpt><trkpt lat="46.707787" lon="8.804397"><ele>2121.77</ele><time>2013-08-04T08:11:23Z</time></trkpt><trkpt lat="46.707787" lon="8.804432"><ele>2121.77</ele><time>2013-08-04T08:11:25Z</time></trkpt><trkpt lat="46.707798" lon="8.804532"><ele>2120.81</ele><time>2013-08-04T08:11:31Z</time></trkpt><trkpt lat="46.707798" lon="8.804629"><ele>2120.32</ele><time>2013-08-04T08:11:38Z</time></trkpt><trkpt lat="46.707825" lon="8.804730"><ele>2119.84</ele><time>2013-08-04T08:11:43Z</time></trkpt><trkpt lat="46.707840" lon="8.804754"><ele>2119.84</ele><time>2013-08-04T08:11:56Z</time></trkpt><trkpt lat="46.707848" lon="8.804749"><ele>2120.32</ele><time>2013-08-04T08:12:26Z</time></trkpt><trkpt lat="46.707848" lon="8.804749"><ele>2120.32</ele><time>2013-08-04T08:12:50Z</time></trkpt><trkpt lat="46.707863" lon="8.804803"><ele>2119.36</ele><time>2013-08-04T08:13:14Z</time></trkpt><trkpt lat="46.707882" lon="8.804878"><ele>2119.36</ele><time>2013-08-04T08:13:22Z</time></trkpt><trkpt lat="46.707878" lon="8.804950"><ele>2118.40</ele><time>2013-08-04T08:13:28Z</time></trkpt><trkpt lat="46.707878" lon="8.805047"><ele>2116.00</ele><time>2013-08-04T08:13:38Z</time></trkpt><trkpt lat="46.707848" lon="8.805164"><ele>2113.60</ele><time>2013-08-04T08:13:47Z</time></trkpt><trkpt lat="46.707817" lon="8.805269"><ele>2111.67</ele><time>2013-08-04T08:13:56Z</time></trkpt><trkpt lat="46.707817" lon="8.805296"><ele>2111.19</ele><time>2013-08-04T08:13:59Z</time></trkpt><trkpt lat="46.707806" lon="8.805410"><ele>2108.79</ele><time>2013-08-04T08:14:08Z</time></trkpt><trkpt lat="46.707806" lon="8.805483"><ele>2109.27</ele><time>2013-08-04T08:14:13Z</time></trkpt><trkpt lat="46.707802" lon="8.805569"><ele>2108.79</ele><time>2013-08-04T08:14:16Z</time></trkpt><trkpt lat="46.707809" lon="8.805616"><ele>2108.31</ele><time>2013-08-04T08:14:20Z</time></trkpt><trkpt lat="46.707825" lon="8.805679"><ele>2107.83</ele><time>2013-08-04T08:14:25Z</time></trkpt><trkpt lat="46.707897" lon="8.805759"><ele>2106.87</ele><time>2013-08-04T08:14:35Z</time></trkpt><trkpt lat="46.707935" lon="8.805876"><ele>2104.94</ele><time>2013-08-04T08:14:44Z</time></trkpt><trkpt lat="46.707973" lon="8.805952"><ele>2104.94</ele><time>2013-08-04T08:14:51Z</time></trkpt><trkpt lat="46.707985" lon="8.805979"><ele>2104.46</ele><time>2013-08-04T08:15:04Z</time></trkpt><trkpt lat="46.707985" lon="8.805979"><ele>2104.46</ele><time>2013-08-04T08:15:31Z</time></trkpt><trkpt lat="46.708008" lon="8.806035"><ele>2103.02</ele><time>2013-08-04T08:15:47Z</time></trkpt><trkpt lat="46.708031" lon="8.806101"><ele>2102.54</ele><time>2013-08-04T08:15:55Z</time></trkpt><trkpt lat="46.708031" lon="8.806109"><ele>2102.06</ele><time>2013-08-04T08:15:56Z</time></trkpt><trkpt lat="46.708050" lon="8.806159"><ele>2103.02</ele><time>2013-08-04T08:16:03Z</time></trkpt><trkpt lat="46.708061" lon="8.806185"><ele>2103.02</ele><time>2013-08-04T08:16:15Z</time></trkpt><trkpt lat="46.708076" lon="8.806208"><ele>2102.06</ele><time>2013-08-04T08:16:35Z</time></trkpt><trkpt lat="46.708130" lon="8.806267"><ele>2101.58</ele><time>2013-08-04T08:16:43Z</time></trkpt><trkpt lat="46.708157" lon="8.806344"><ele>2100.62</ele><time>2013-08-04T08:16:54Z</time></trkpt><trkpt lat="46.708176" lon="8.806386"><ele>2101.10</ele><time>2013-08-04T08:17:00Z</time></trkpt><trkpt lat="46.708183" lon="8.806442"><ele>2101.58</ele><time>2013-08-04T08:17:05Z</time></trkpt><trkpt lat="46.708206" lon="8.806450"><ele>2101.10</ele><time>2013-08-04T08:17:17Z</time></trkpt><trkpt lat="46.708206" lon="8.806450"><ele>2101.58</ele><time>2013-08-04T08:17:30Z</time></trkpt><trkpt lat="46.708229" lon="8.806493"><ele>2100.14</ele><time>2013-08-04T08:17:37Z</time></trkpt><trkpt lat="46.708256" lon="8.806598"><ele>2099.66</ele><time>2013-08-04T08:17:46Z</time></trkpt><trkpt lat="46.708267" lon="8.806647"><ele>2099.18</ele><time>2013-08-04T08:17:56Z</time></trkpt><trkpt lat="46.708302" lon="8.806654"><ele>2099.66</ele><time>2013-08-04T08:18:11Z</time></trkpt><trkpt lat="46.708324" lon="8.806745"><ele>2097.25</ele><time>2013-08-04T08:18:20Z</time></trkpt><trkpt lat="46.708336" lon="8.806760"><ele>2097.73</ele><time>2013-08-04T08:18:22Z</time></trkpt><trkpt lat="46.708393" lon="8.806865"><ele>2097.25</ele><time>2013-08-04T08:18:31Z</time></trkpt><trkpt lat="46.708439" lon="8.806920"><ele>2097.73</ele><time>2013-08-04T08:18:37Z</time></trkpt><trkpt lat="46.708458" lon="8.806983"><ele>2097.73</ele><time>2013-08-04T08:18:45Z</time></trkpt><trkpt lat="46.708462" lon="8.807055"><ele>2097.73</ele><time>2013-08-04T08:18:53Z</time></trkpt><trkpt lat="46.708519" lon="8.807131"><ele>2098.21</ele><time>2013-08-04T08:19:02Z</time></trkpt><trkpt lat="46.708542" lon="8.807200"><ele>2098.21</ele><time>2013-08-04T08:19:06Z</time></trkpt><trkpt lat="46.708530" lon="8.807261"><ele>2097.25</ele><time>2013-08-04T08:19:10Z</time></trkpt><trkpt lat="46.708553" lon="8.807300"><ele>2096.77</ele><time>2013-08-04T08:19:13Z</time></trkpt><trkpt lat="46.708599" lon="8.807390"><ele>2097.25</ele><time>2013-08-04T08:19:24Z</time></trkpt><trkpt lat="46.708637" lon="8.807458"><ele>2098.21</ele><time>2013-08-04T08:19:31Z</time></trkpt><trkpt lat="46.708645" lon="8.807503"><ele>2096.77</ele><time>2013-08-04T08:19:39Z</time></trkpt><trkpt lat="46.708645" lon="8.807500"><ele>2096.77</ele><time>2013-08-04T08:19:55Z</time></trkpt><trkpt lat="46.708641" lon="8.807499"><ele>2096.77</ele><time>2013-08-04T08:20:12Z</time></trkpt><trkpt lat="46.708633" lon="8.807508"><ele>2096.77</ele><time>2013-08-04T08:20:38Z</time></trkpt><trkpt lat="46.708633" lon="8.807508"><ele>2097.25</ele><time>2013-08-04T08:21:03Z</time></trkpt><trkpt lat="46.708637" lon="8.807515"><ele>2097.25</ele><time>2013-08-04T08:21:27Z</time></trkpt><trkpt lat="46.708637" lon="8.807515"><ele>2097.25</ele><time>2013-08-04T08:21:42Z</time></trkpt><trkpt lat="46.708668" lon="8.807573"><ele>2096.29</ele><time>2013-08-04T08:21:46Z</time></trkpt><trkpt lat="46.708687" lon="8.807598"><ele>2096.29</ele><time>2013-08-04T08:21:49Z</time></trkpt><trkpt lat="46.708710" lon="8.807671"><ele>2094.85</ele><time>2013-08-04T08:21:57Z</time></trkpt><trkpt lat="46.708717" lon="8.807722"><ele>2093.89</ele><time>2013-08-04T08:22:00Z</time></trkpt><trkpt lat="46.708759" lon="8.807808"><ele>2092.45</ele><time>2013-08-04T08:22:09Z</time></trkpt><trkpt lat="46.708778" lon="8.807886"><ele>2090.04</ele><time>2013-08-04T08:22:19Z</time></trkpt><trkpt lat="46.708767" lon="8.807911"><ele>2089.56</ele><time>2013-08-04T08:22:43Z</time></trkpt><trkpt lat="46.708794" lon="8.808018"><ele>2088.60</ele><time>2013-08-04T08:22:52Z</time></trkpt><trkpt lat="46.708801" lon="8.808044"><ele>2086.68</ele><time>2013-08-04T08:23:02Z</time></trkpt><trkpt lat="46.708809" lon="8.808064"><ele>2087.64</ele><time>2013-08-04T08:23:10Z</time></trkpt><trkpt lat="46.708836" lon="8.808135"><ele>2086.20</ele><time>2013-08-04T08:23:18Z</time></trkpt><trkpt lat="46.708851" lon="8.808208"><ele>2087.16</ele><time>2013-08-04T08:23:26Z</time></trkpt><trkpt lat="46.708878" lon="8.808330"><ele>2085.72</ele><time>2013-08-04T08:23:35Z</time></trkpt><trkpt lat="46.708904" lon="8.808397"><ele>2086.68</ele><time>2013-08-04T08:23:42Z</time></trkpt><trkpt lat="46.708893" lon="8.808413"><ele>2085.72</ele><time>2013-08-04T08:23:44Z</time></trkpt><trkpt lat="46.708885" lon="8.808507"><ele>2084.28</ele><time>2013-08-04T08:23:50Z</time></trkpt><trkpt lat="46.708912" lon="8.808697"><ele>2082.83</ele><time>2013-08-04T08:24:02Z</time></trkpt><trkpt lat="46.708900" lon="8.808737"><ele>2081.87</ele><time>2013-08-04T08:24:07Z</time></trkpt><trkpt lat="46.708939" lon="8.808795"><ele>2081.87</ele><time>2013-08-04T08:24:16Z</time></trkpt><trkpt lat="46.708950" lon="8.808869"><ele>2081.39</ele><time>2013-08-04T08:24:23Z</time></trkpt><trkpt lat="46.708946" lon="8.808913"><ele>2080.43</ele><time>2013-08-04T08:24:26Z</time></trkpt><trkpt lat="46.708954" lon="8.808975"><ele>2080.91</ele><time>2013-08-04T08:24:36Z</time></trkpt><trkpt lat="46.708958" lon="8.808989"><ele>2080.91</ele><time>2013-08-04T08:24:54Z</time></trkpt><trkpt lat="46.708958" lon="8.808989"><ele>2080.43</ele><time>2013-08-04T08:25:19Z</time></trkpt><trkpt lat="46.708961" lon="8.808990"><ele>2080.43</ele><time>2013-08-04T08:25:46Z</time></trkpt><trkpt lat="46.708961" lon="8.808990"><ele>2080.91</ele><time>2013-08-04T08:26:02Z</time></trkpt><trkpt lat="46.708988" lon="8.809047"><ele>2080.91</ele><time>2013-08-04T08:26:08Z</time></trkpt><trkpt lat="46.709015" lon="8.809082"><ele>2079.47</ele><time>2013-08-04T08:26:13Z</time></trkpt><trkpt lat="46.709049" lon="8.809220"><ele>2078.99</ele><time>2013-08-04T08:26:20Z</time></trkpt><trkpt lat="46.709064" lon="8.809267"><ele>2078.03</ele><time>2013-08-04T08:26:25Z</time></trkpt><trkpt lat="46.709099" lon="8.809379"><ele>2075.62</ele><time>2013-08-04T08:26:36Z</time></trkpt><trkpt lat="46.709099" lon="8.809397"><ele>2075.14</ele><time>2013-08-04T08:26:39Z</time></trkpt><trkpt lat="46.709110" lon="8.809449"><ele>2074.18</ele><time>2013-08-04T08:26:43Z</time></trkpt><trkpt lat="46.709141" lon="8.809572"><ele>2071.78</ele><time>2013-08-04T08:26:55Z</time></trkpt><trkpt lat="46.709164" lon="8.809730"><ele>2071.30</ele><time>2013-08-04T08:27:06Z</time></trkpt><trkpt lat="46.709156" lon="8.809768"><ele>2071.30</ele><time>2013-08-04T08:27:09Z</time></trkpt><trkpt lat="46.709171" lon="8.809880"><ele>2070.82</ele><time>2013-08-04T08:27:18Z</time></trkpt><trkpt lat="46.709225" lon="8.810019"><ele>2068.41</ele><time>2013-08-04T08:27:31Z</time></trkpt><trkpt lat="46.709232" lon="8.810051"><ele>2067.93</ele><time>2013-08-04T08:27:33Z</time></trkpt><trkpt lat="46.709251" lon="8.810173"><ele>2066.49</ele><time>2013-08-04T08:27:41Z</time></trkpt><trkpt lat="46.709312" lon="8.810334"><ele>2066.97</ele><time>2013-08-04T08:27:51Z</time></trkpt><trkpt lat="46.709316" lon="8.810338"><ele>2066.01</ele><time>2013-08-04T08:27:52Z</time></trkpt><trkpt lat="46.709332" lon="8.810368"><ele>2067.93</ele><time>2013-08-04T08:27:56Z</time></trkpt><trkpt lat="46.709339" lon="8.810372"><ele>2068.89</ele><time>2013-08-04T08:28:00Z</time></trkpt><trkpt lat="46.709400" lon="8.810455"><ele>2068.41</ele><time>2013-08-04T08:28:09Z</time></trkpt><trkpt lat="46.709454" lon="8.810507"><ele>2068.89</ele><time>2013-08-04T08:28:19Z</time></trkpt><trkpt lat="46.709450" lon="8.810523"><ele>2068.89</ele><time>2013-08-04T08:28:42Z</time></trkpt><trkpt lat="46.709503" lon="8.810557"><ele>2070.34</ele><time>2013-08-04T08:28:51Z</time></trkpt><trkpt lat="46.709522" lon="8.810620"><ele>2069.86</ele><time>2013-08-04T08:28:59Z</time></trkpt><trkpt lat="46.709557" lon="8.810675"><ele>2070.34</ele><time>2013-08-04T08:29:08Z</time></trkpt><trkpt lat="46.709606" lon="8.810721"><ele>2070.34</ele><time>2013-08-04T08:29:20Z</time></trkpt><trkpt lat="46.709602" lon="8.810759"><ele>2070.34</ele><time>2013-08-04T08:29:22Z</time></trkpt><trkpt lat="46.709599" lon="8.810784"><ele>2070.34</ele><time>2013-08-04T08:29:24Z</time></trkpt><trkpt lat="46.709602" lon="8.810883"><ele>2070.34</ele><time>2013-08-04T08:29:31Z</time></trkpt><trkpt lat="46.709595" lon="8.810910"><ele>2069.86</ele><time>2013-08-04T08:29:32Z</time></trkpt><trkpt lat="46.709560" lon="8.810962"><ele>2069.38</ele><time>2013-08-04T08:29:37Z</time></trkpt><trkpt lat="46.709579" lon="8.810975"><ele>2069.38</ele><time>2013-08-04T08:29:39Z</time></trkpt><trkpt lat="46.709614" lon="8.811017"><ele>2069.38</ele><time>2013-08-04T08:29:43Z</time></trkpt><trkpt lat="46.709652" lon="8.811098"><ele>2069.38</ele><time>2013-08-04T08:29:48Z</time></trkpt><trkpt lat="46.709675" lon="8.811244"><ele>2068.41</ele><time>2013-08-04T08:29:56Z</time></trkpt><trkpt lat="46.709709" lon="8.811266"><ele>2067.93</ele><time>2013-08-04T08:30:01Z</time></trkpt><trkpt lat="46.709747" lon="8.811323"><ele>2066.97</ele><time>2013-08-04T08:30:07Z</time></trkpt><trkpt lat="46.709812" lon="8.811357"><ele>2065.53</ele><time>2013-08-04T08:30:17Z</time></trkpt><trkpt lat="46.709827" lon="8.811398"><ele>2065.53</ele><time>2013-08-04T08:30:25Z</time></trkpt><trkpt lat="46.709873" lon="8.811488"><ele>2063.61</ele><time>2013-08-04T08:30:34Z</time></trkpt><trkpt lat="46.709908" lon="8.811541"><ele>2061.20</ele><time>2013-08-04T08:30:44Z</time></trkpt><trkpt lat="46.709961" lon="8.811645"><ele>2060.24</ele><time>2013-08-04T08:30:53Z</time></trkpt><trkpt lat="46.709976" lon="8.811680"><ele>2059.28</ele><time>2013-08-04T08:30:56Z</time></trkpt><trkpt lat="46.710026" lon="8.811816"><ele>2058.32</ele><time>2013-08-04T08:31:06Z</time></trkpt><trkpt lat="46.710049" lon="8.811894"><ele>2056.40</ele><time>2013-08-04T08:31:16Z</time></trkpt><trkpt lat="46.710064" lon="8.811931"><ele>2055.44</ele><time>2013-08-04T08:31:19Z</time></trkpt><trkpt lat="46.710091" lon="8.811994"><ele>2054.96</ele><time>2013-08-04T08:31:23Z</time></trkpt><trkpt lat="46.710152" lon="8.812050"><ele>2053.51</ele><time>2013-08-04T08:31:32Z</time></trkpt><trkpt lat="46.710194" lon="8.812108"><ele>2052.07</ele><time>2013-08-04T08:31:40Z</time></trkpt><trkpt lat="46.710224" lon="8.812186"><ele>2051.11</ele><time>2013-08-04T08:31:48Z</time></trkpt><trkpt lat="46.710243" lon="8.812238"><ele>2050.15</ele><time>2013-08-04T08:31:53Z</time></trkpt><trkpt lat="46.710262" lon="8.812260"><ele>2050.63</ele><time>2013-08-04T08:31:56Z</time></trkpt><trkpt lat="46.710297" lon="8.812353"><ele>2047.75</ele><time>2013-08-04T08:32:07Z</time></trkpt><trkpt lat="46.710327" lon="8.812438"><ele>2046.30</ele><time>2013-08-04T08:32:17Z</time></trkpt><trkpt lat="46.710354" lon="8.812501"><ele>2044.86</ele><time>2013-08-04T08:32:26Z</time></trkpt><trkpt lat="46.710358" lon="8.812564"><ele>2043.90</ele><time>2013-08-04T08:32:31Z</time></trkpt><trkpt lat="46.710388" lon="8.812634"><ele>2042.94</ele><time>2013-08-04T08:32:37Z</time></trkpt><trkpt lat="46.710411" lon="8.812695"><ele>2042.46</ele><time>2013-08-04T08:32:41Z</time></trkpt><trkpt lat="46.710426" lon="8.812752"><ele>2041.50</ele><time>2013-08-04T08:32:48Z</time></trkpt><trkpt lat="46.710453" lon="8.812827"><ele>2040.54</ele><time>2013-08-04T08:32:53Z</time></trkpt><trkpt lat="46.710480" lon="8.812858"><ele>2040.05</ele><time>2013-08-04T08:32:57Z</time></trkpt><trkpt lat="46.710526" lon="8.812917"><ele>2038.61</ele><time>2013-08-04T08:33:03Z</time></trkpt><trkpt lat="46.710556" lon="8.813001"><ele>2038.13</ele><time>2013-08-04T08:33:09Z</time></trkpt><trkpt lat="46.710564" lon="8.813095"><ele>2038.61</ele><time>2013-08-04T08:33:13Z</time></trkpt><trkpt lat="46.710594" lon="8.813105"><ele>2038.61</ele><time>2013-08-04T08:33:17Z</time></trkpt><trkpt lat="46.710663" lon="8.813136"><ele>2038.61</ele><time>2013-08-04T08:33:26Z</time></trkpt><trkpt lat="46.710663" lon="8.813136"><ele>2038.61</ele><time>2013-08-04T08:33:51Z</time></trkpt><trkpt lat="46.710655" lon="8.813154"><ele>2039.09</ele><time>2013-08-04T08:34:10Z</time></trkpt><trkpt lat="46.710655" lon="8.813154"><ele>2038.61</ele><time>2013-08-04T08:34:34Z</time></trkpt><trkpt lat="46.710655" lon="8.813156"><ele>2038.61</ele><time>2013-08-04T08:35:02Z</time></trkpt><trkpt lat="46.710655" lon="8.813158"><ele>2038.13</ele><time>2013-08-04T08:35:30Z</time></trkpt><trkpt lat="46.710690" lon="8.813160"><ele>2037.17</ele><time>2013-08-04T08:35:35Z</time></trkpt><trkpt lat="46.710720" lon="8.813145"><ele>2037.17</ele><time>2013-08-04T08:35:40Z</time></trkpt><trkpt lat="46.710766" lon="8.813104"><ele>2035.25</ele><time>2013-08-04T08:35:44Z</time></trkpt><trkpt lat="46.710793" lon="8.813096"><ele>2035.73</ele><time>2013-08-04T08:35:47Z</time></trkpt><trkpt lat="46.710831" lon="8.813091"><ele>2035.73</ele><time>2013-08-04T08:35:52Z</time></trkpt><trkpt lat="46.710876" lon="8.813019"><ele>2033.81</ele><time>2013-08-04T08:36:01Z</time></trkpt><trkpt lat="46.710884" lon="8.813025"><ele>2033.81</ele><time>2013-08-04T08:36:02Z</time></trkpt><trkpt lat="46.710884" lon="8.813053"><ele>2033.33</ele><time>2013-08-04T08:36:04Z</time></trkpt><trkpt lat="46.710899" lon="8.813116"><ele>2031.88</ele><time>2013-08-04T08:36:10Z</time></trkpt><trkpt lat="46.710899" lon="8.813198"><ele>2030.44</ele><time>2013-08-04T08:36:18Z</time></trkpt><trkpt lat="46.710957" lon="8.813167"><ele>2028.52</ele><time>2013-08-04T08:36:27Z</time></trkpt><trkpt lat="46.710983" lon="8.813175"><ele>2027.56</ele><time>2013-08-04T08:36:31Z</time></trkpt><trkpt lat="46.711010" lon="8.813222"><ele>2027.56</ele><time>2013-08-04T08:36:34Z</time></trkpt><trkpt lat="46.711018" lon="8.813241"><ele>2026.12</ele><time>2013-08-04T08:36:43Z</time></trkpt><trkpt lat="46.711014" lon="8.813312"><ele>2026.12</ele><time>2013-08-04T08:36:47Z</time></trkpt><trkpt lat="46.711006" lon="8.813359"><ele>2026.60</ele><time>2013-08-04T08:36:58Z</time></trkpt><trkpt lat="46.711006" lon="8.813361"><ele>2026.60</ele><time>2013-08-04T08:37:18Z</time></trkpt><trkpt lat="46.710999" lon="8.813357"><ele>2027.08</ele><time>2013-08-04T08:37:35Z</time></trkpt><trkpt lat="46.710999" lon="8.813346"><ele>2026.12</ele><time>2013-08-04T08:37:48Z</time></trkpt><trkpt lat="46.711010" lon="8.813345"><ele>2025.64</ele><time>2013-08-04T08:38:02Z</time></trkpt><trkpt lat="46.711002" lon="8.813375"><ele>2025.15</ele><time>2013-08-04T08:38:05Z</time></trkpt><trkpt lat="46.710991" lon="8.813404"><ele>2025.15</ele><time>2013-08-04T08:38:10Z</time></trkpt><trkpt lat="46.710972" lon="8.813435"><ele>2024.67</ele><time>2013-08-04T08:38:13Z</time></trkpt><trkpt lat="46.710941" lon="8.813483"><ele>2023.71</ele><time>2013-08-04T08:38:17Z</time></trkpt><trkpt lat="46.710873" lon="8.813607"><ele>2022.75</ele><time>2013-08-04T08:38:28Z</time></trkpt><trkpt lat="46.710857" lon="8.813636"><ele>2023.23</ele><time>2013-08-04T08:38:30Z</time></trkpt><trkpt lat="46.710808" lon="8.813720"><ele>2021.79</ele><time>2013-08-04T08:38:37Z</time></trkpt><trkpt lat="46.710781" lon="8.813767"><ele>2021.79</ele><time>2013-08-04T08:38:43Z</time></trkpt><trkpt lat="46.710739" lon="8.813838"><ele>2019.39</ele><time>2013-08-04T08:38:50Z</time></trkpt><trkpt lat="46.710690" lon="8.813929"><ele>2017.46</ele><time>2013-08-04T08:39:00Z</time></trkpt><trkpt lat="46.710686" lon="8.813935"><ele>2016.98</ele><time>2013-08-04T08:39:01Z</time></trkpt><trkpt lat="46.710670" lon="8.814005"><ele>2016.50</ele><time>2013-08-04T08:39:06Z</time></trkpt><trkpt lat="46.710663" lon="8.814034"><ele>2016.02</ele><time>2013-08-04T08:39:09Z</time></trkpt><trkpt lat="46.710636" lon="8.814115"><ele>2014.10</ele><time>2013-08-04T08:39:14Z</time></trkpt><trkpt lat="46.710606" lon="8.814199"><ele>2012.18</ele><time>2013-08-04T08:39:20Z</time></trkpt><trkpt lat="46.710575" lon="8.814293"><ele>2012.18</ele><time>2013-08-04T08:39:29Z</time></trkpt><trkpt lat="46.710567" lon="8.814325"><ele>2012.18</ele><time>2013-08-04T08:39:32Z</time></trkpt><trkpt lat="46.710571" lon="8.814442"><ele>2011.70</ele><time>2013-08-04T08:39:39Z</time></trkpt><trkpt lat="46.710533" lon="8.814541"><ele>2010.73</ele><time>2013-08-04T08:39:45Z</time></trkpt><trkpt lat="46.710510" lon="8.814563"><ele>2009.77</ele><time>2013-08-04T08:40:01Z</time></trkpt><trkpt lat="46.710510" lon="8.814615"><ele>2009.29</ele><time>2013-08-04T08:40:10Z</time></trkpt><trkpt lat="46.710495" lon="8.814712"><ele>2008.33</ele><time>2013-08-04T08:40:16Z</time></trkpt><trkpt lat="46.710491" lon="8.814793"><ele>2006.89</ele><time>2013-08-04T08:40:21Z</time></trkpt><trkpt lat="46.710487" lon="8.814872"><ele>2004.97</ele><time>2013-08-04T08:40:28Z</time></trkpt><trkpt lat="46.710487" lon="8.814926"><ele>2003.52</ele><time>2013-08-04T08:40:33Z</time></trkpt><trkpt lat="46.710476" lon="8.815024"><ele>2003.04</ele><time>2013-08-04T08:40:40Z</time></trkpt><trkpt lat="46.710449" lon="8.815138"><ele>2001.60</ele><time>2013-08-04T08:40:47Z</time></trkpt><trkpt lat="46.710445" lon="8.815183"><ele>2001.60</ele><time>2013-08-04T08:40:50Z</time></trkpt><trkpt lat="46.710445" lon="8.815216"><ele>2001.12</ele><time>2013-08-04T08:40:52Z</time></trkpt><trkpt lat="46.710442" lon="8.815265"><ele>2000.16</ele><time>2013-08-04T08:40:57Z</time></trkpt><trkpt lat="46.710449" lon="8.815289"><ele>1999.68</ele><time>2013-08-04T08:41:10Z</time></trkpt><trkpt lat="46.710442" lon="8.815336"><ele>2000.16</ele><time>2013-08-04T08:41:20Z</time></trkpt><trkpt lat="46.710449" lon="8.815432"><ele>1999.68</ele><time>2013-08-04T08:41:26Z</time></trkpt><trkpt lat="46.710457" lon="8.815478"><ele>1998.72</ele><time>2013-08-04T08:41:28Z</time></trkpt><trkpt lat="46.710453" lon="8.815536"><ele>1998.24</ele><time>2013-08-04T08:41:33Z</time></trkpt><trkpt lat="46.710457" lon="8.815592"><ele>1997.76</ele><time>2013-08-04T08:41:38Z</time></trkpt><trkpt lat="46.710457" lon="8.815640"><ele>1996.80</ele><time>2013-08-04T08:41:45Z</time></trkpt><trkpt lat="46.710487" lon="8.815741"><ele>1996.32</ele><time>2013-08-04T08:41:52Z</time></trkpt><trkpt lat="46.710487" lon="8.815789"><ele>1994.87</ele><time>2013-08-04T08:41:58Z</time></trkpt><trkpt lat="46.710491" lon="8.815865"><ele>1994.39</ele><time>2013-08-04T08:42:04Z</time></trkpt><trkpt lat="46.710438" lon="8.815952"><ele>1992.95</ele><time>2013-08-04T08:42:13Z</time></trkpt><trkpt lat="46.710411" lon="8.815992"><ele>1991.99</ele><time>2013-08-04T08:42:17Z</time></trkpt><trkpt lat="46.710381" lon="8.816056"><ele>1989.59</ele><time>2013-08-04T08:42:26Z</time></trkpt><trkpt lat="46.710369" lon="8.816073"><ele>1988.62</ele><time>2013-08-04T08:42:28Z</time></trkpt><trkpt lat="46.710331" lon="8.816109"><ele>1988.14</ele><time>2013-08-04T08:42:36Z</time></trkpt><trkpt lat="46.710320" lon="8.816275"><ele>1985.74</ele><time>2013-08-04T08:42:45Z</time></trkpt><trkpt lat="46.710297" lon="8.816300"><ele>1985.26</ele><time>2013-08-04T08:42:47Z</time></trkpt><trkpt lat="46.710258" lon="8.816385"><ele>1984.30</ele><time>2013-08-04T08:42:54Z</time></trkpt><trkpt lat="46.710262" lon="8.816401"><ele>1983.34</ele><time>2013-08-04T08:42:56Z</time></trkpt><trkpt lat="46.710255" lon="8.816473"><ele>1981.90</ele><time>2013-08-04T08:43:04Z</time></trkpt><trkpt lat="46.710182" lon="8.816430"><ele>1980.45</ele><time>2013-08-04T08:43:12Z</time></trkpt><trkpt lat="46.710178" lon="8.816427"><ele>1980.93</ele><time>2013-08-04T08:43:26Z</time></trkpt><trkpt lat="46.710178" lon="8.816427"><ele>1980.45</ele><time>2013-08-04T08:43:52Z</time></trkpt><trkpt lat="46.710178" lon="8.816426"><ele>1980.45</ele><time>2013-08-04T08:43:56Z</time></trkpt><trkpt lat="46.710163" lon="8.816395"><ele>1979.49</ele><time>2013-08-04T08:44:00Z</time></trkpt><trkpt lat="46.710133" lon="8.816344"><ele>1979.01</ele><time>2013-08-04T08:44:04Z</time></trkpt><trkpt lat="46.710117" lon="8.816307"><ele>1978.53</ele><time>2013-08-04T08:44:07Z</time></trkpt><trkpt lat="46.710091" lon="8.816236"><ele>1977.09</ele><time>2013-08-04T08:44:16Z</time></trkpt><trkpt lat="46.710049" lon="8.816148"><ele>1975.65</ele><time>2013-08-04T08:44:25Z</time></trkpt><trkpt lat="46.710018" lon="8.816058"><ele>1973.24</ele><time>2013-08-04T08:44:35Z</time></trkpt><trkpt lat="46.710018" lon="8.816044"><ele>1972.76</ele><time>2013-08-04T08:44:36Z</time></trkpt><trkpt lat="46.709980" lon="8.816018"><ele>1972.76</ele><time>2013-08-04T08:44:40Z</time></trkpt><trkpt lat="46.709953" lon="8.815955"><ele>1969.88</ele><time>2013-08-04T08:44:49Z</time></trkpt><trkpt lat="46.709946" lon="8.815898"><ele>1969.40</ele><time>2013-08-04T08:44:59Z</time></trkpt><trkpt lat="46.709938" lon="8.815892"><ele>1968.44</ele><time>2013-08-04T08:45:15Z</time></trkpt><trkpt lat="46.709930" lon="8.815896"><ele>1968.92</ele><time>2013-08-04T08:45:27Z</time></trkpt><trkpt lat="46.709927" lon="8.815884"><ele>1969.40</ele><time>2013-08-04T08:45:29Z</time></trkpt><trkpt lat="46.709923" lon="8.815858"><ele>1968.44</ele><time>2013-08-04T08:45:31Z</time></trkpt><trkpt lat="46.709900" lon="8.815722"><ele>1966.99</ele><time>2013-08-04T08:45:40Z</time></trkpt><trkpt lat="46.709892" lon="8.815678"><ele>1966.99</ele><time>2013-08-04T08:45:44Z</time></trkpt><trkpt lat="46.709877" lon="8.815597"><ele>1966.03</ele><time>2013-08-04T08:45:54Z</time></trkpt><trkpt lat="46.709866" lon="8.815519"><ele>1964.11</ele><time>2013-08-04T08:46:02Z</time></trkpt><trkpt lat="46.709854" lon="8.815467"><ele>1963.63</ele><time>2013-08-04T08:46:05Z</time></trkpt><trkpt lat="46.709835" lon="8.815379"><ele>1962.67</ele><time>2013-08-04T08:46:11Z</time></trkpt><trkpt lat="46.709793" lon="8.815321"><ele>1962.19</ele><time>2013-08-04T08:46:16Z</time></trkpt><trkpt lat="46.709766" lon="8.815191"><ele>1962.19</ele><time>2013-08-04T08:46:25Z</time></trkpt><trkpt lat="46.709763" lon="8.815173"><ele>1961.71</ele><time>2013-08-04T08:46:26Z</time></trkpt><trkpt lat="46.709740" lon="8.815104"><ele>1961.71</ele><time>2013-08-04T08:46:31Z</time></trkpt><trkpt lat="46.709717" lon="8.815011"><ele>1961.71</ele><time>2013-08-04T08:46:39Z</time></trkpt><trkpt lat="46.709686" lon="8.814898"><ele>1961.23</ele><time>2013-08-04T08:46:46Z</time></trkpt><trkpt lat="46.709660" lon="8.814844"><ele>1960.27</ele><time>2013-08-04T08:46:52Z</time></trkpt><trkpt lat="46.709644" lon="8.814791"><ele>1960.27</ele><time>2013-08-04T08:46:55Z</time></trkpt><trkpt lat="46.709637" lon="8.814721"><ele>1961.23</ele><time>2013-08-04T08:46:59Z</time></trkpt><trkpt lat="46.709610" lon="8.814697"><ele>1960.27</ele><time>2013-08-04T08:47:03Z</time></trkpt><trkpt lat="46.709583" lon="8.814665"><ele>1959.78</ele><time>2013-08-04T08:47:13Z</time></trkpt><trkpt lat="46.709572" lon="8.814644"><ele>1959.78</ele><time>2013-08-04T08:47:17Z</time></trkpt><trkpt lat="46.709522" lon="8.814546"><ele>1959.30</ele><time>2013-08-04T08:47:24Z</time></trkpt><trkpt lat="46.709507" lon="8.814529"><ele>1959.30</ele><time>2013-08-04T08:47:27Z</time></trkpt><trkpt lat="46.709480" lon="8.814487"><ele>1958.34</ele><time>2013-08-04T08:47:31Z</time></trkpt><trkpt lat="46.709465" lon="8.814466"><ele>1958.34</ele><time>2013-08-04T08:47:34Z</time></trkpt><trkpt lat="46.709400" lon="8.814348"><ele>1956.90</ele><time>2013-08-04T08:47:43Z</time></trkpt><trkpt lat="46.709373" lon="8.814312"><ele>1956.42</ele><time>2013-08-04T08:47:47Z</time></trkpt><trkpt lat="46.709328" lon="8.814282"><ele>1956.90</ele><time>2013-08-04T08:47:51Z</time></trkpt><trkpt lat="46.709305" lon="8.814281"><ele>1956.90</ele><time>2013-08-04T08:47:53Z</time></trkpt><trkpt lat="46.709236" lon="8.814209"><ele>1955.94</ele><time>2013-08-04T08:48:00Z</time></trkpt><trkpt lat="46.709190" lon="8.814175"><ele>1955.46</ele><time>2013-08-04T08:48:05Z</time></trkpt><trkpt lat="46.709148" lon="8.814114"><ele>1954.50</ele><time>2013-08-04T08:48:11Z</time></trkpt><trkpt lat="46.709137" lon="8.814075"><ele>1954.50</ele><time>2013-08-04T08:48:16Z</time></trkpt><trkpt lat="46.709129" lon="8.814066"><ele>1953.54</ele><time>2013-08-04T08:48:21Z</time></trkpt><trkpt lat="46.709106" lon="8.814035"><ele>1953.06</ele><time>2013-08-04T08:48:26Z</time></trkpt><trkpt lat="46.709095" lon="8.814012"><ele>1952.09</ele><time>2013-08-04T08:48:29Z</time></trkpt><trkpt lat="46.709045" lon="8.813912"><ele>1951.13</ele><time>2013-08-04T08:48:38Z</time></trkpt><trkpt lat="46.709000" lon="8.813828"><ele>1950.65</ele><time>2013-08-04T08:48:45Z</time></trkpt><trkpt lat="46.708992" lon="8.813802"><ele>1950.65</ele><time>2013-08-04T08:48:48Z</time></trkpt><trkpt lat="46.708969" lon="8.813757"><ele>1950.17</ele><time>2013-08-04T08:48:53Z</time></trkpt><trkpt lat="46.708935" lon="8.813697"><ele>1950.17</ele><time>2013-08-04T08:48:58Z</time></trkpt><trkpt lat="46.708900" lon="8.813622"><ele>1949.21</ele><time>2013-08-04T08:49:02Z</time></trkpt><trkpt lat="46.708855" lon="8.813561"><ele>1948.73</ele><time>2013-08-04T08:49:08Z</time></trkpt><trkpt lat="46.708805" lon="8.813490"><ele>1948.25</ele><time>2013-08-04T08:49:15Z</time></trkpt><trkpt lat="46.708771" lon="8.813458"><ele>1947.77</ele><time>2013-08-04T08:49:18Z</time></trkpt><trkpt lat="46.708736" lon="8.813442"><ele>1947.29</ele><time>2013-08-04T08:49:21Z</time></trkpt><trkpt lat="46.708717" lon="8.813419"><ele>1947.29</ele><time>2013-08-04T08:49:23Z</time></trkpt><trkpt lat="46.708702" lon="8.813396"><ele>1946.81</ele><time>2013-08-04T08:49:26Z</time></trkpt><trkpt lat="46.708694" lon="8.813345"><ele>1946.33</ele><time>2013-08-04T08:49:30Z</time></trkpt><trkpt lat="46.708660" lon="8.813276"><ele>1946.33</ele><time>2013-08-04T08:49:35Z</time></trkpt><trkpt lat="46.708641" lon="8.813229"><ele>1945.85</ele><time>2013-08-04T08:49:39Z</time></trkpt><trkpt lat="46.708607" lon="8.813172"><ele>1944.88</ele><time>2013-08-04T08:49:47Z</time></trkpt><trkpt lat="46.708599" lon="8.813162"><ele>1944.40</ele><time>2013-08-04T08:49:48Z</time></trkpt><trkpt lat="46.708549" lon="8.813059"><ele>1943.44</ele><time>2013-08-04T08:49:57Z</time></trkpt><trkpt lat="46.708549" lon="8.813036"><ele>1943.44</ele><time>2013-08-04T08:49:59Z</time></trkpt><trkpt lat="46.708515" lon="8.812962"><ele>1942.96</ele><time>2013-08-04T08:50:04Z</time></trkpt><trkpt lat="46.708477" lon="8.812912"><ele>1942.48</ele><time>2013-08-04T08:50:10Z</time></trkpt><trkpt lat="46.708424" lon="8.812794"><ele>1940.56</ele><time>2013-08-04T08:50:19Z</time></trkpt><trkpt lat="46.708416" lon="8.812761"><ele>1941.04</ele><time>2013-08-04T08:50:22Z</time></trkpt><trkpt lat="46.708393" lon="8.812687"><ele>1939.60</ele><time>2013-08-04T08:50:28Z</time></trkpt><trkpt lat="46.708340" lon="8.812639"><ele>1939.12</ele><time>2013-08-04T08:50:34Z</time></trkpt><trkpt lat="46.708302" lon="8.812578"><ele>1938.64</ele><time>2013-08-04T08:50:40Z</time></trkpt><trkpt lat="46.708252" lon="8.812475"><ele>1937.19</ele><time>2013-08-04T08:50:48Z</time></trkpt><trkpt lat="46.708225" lon="8.812440"><ele>1936.71</ele><time>2013-08-04T08:50:53Z</time></trkpt><trkpt lat="46.708176" lon="8.812392"><ele>1936.71</ele><time>2013-08-04T08:50:58Z</time></trkpt><trkpt lat="46.708145" lon="8.812350"><ele>1935.27</ele><time>2013-08-04T08:51:07Z</time></trkpt><trkpt lat="46.708126" lon="8.812294"><ele>1935.27</ele><time>2013-08-04T08:51:18Z</time></trkpt><trkpt lat="46.708103" lon="8.812229"><ele>1933.83</ele><time>2013-08-04T08:51:26Z</time></trkpt><trkpt lat="46.708061" lon="8.812175"><ele>1932.39</ele><time>2013-08-04T08:51:35Z</time></trkpt><trkpt lat="46.708035" lon="8.812112"><ele>1931.91</ele><time>2013-08-04T08:51:40Z</time></trkpt><trkpt lat="46.708019" lon="8.812031"><ele>1931.43</ele><time>2013-08-04T08:51:45Z</time></trkpt><trkpt lat="46.707977" lon="8.811962"><ele>1930.95</ele><time>2013-08-04T08:51:51Z</time></trkpt><trkpt lat="46.707928" lon="8.811898"><ele>1929.98</ele><time>2013-08-04T08:51:57Z</time></trkpt><trkpt lat="46.707912" lon="8.811875"><ele>1929.98</ele><time>2013-08-04T08:52:08Z</time></trkpt><trkpt lat="46.707912" lon="8.811872"><ele>1929.98</ele><time>2013-08-04T08:52:21Z</time></trkpt><trkpt lat="46.707890" lon="8.811867"><ele>1929.50</ele><time>2013-08-04T08:52:25Z</time></trkpt><trkpt lat="46.707870" lon="8.811865"><ele>1928.54</ele><time>2013-08-04T08:52:27Z</time></trkpt><trkpt lat="46.707836" lon="8.811761"><ele>1928.54</ele><time>2013-08-04T08:52:33Z</time></trkpt><trkpt lat="46.707813" lon="8.811751"><ele>1928.06</ele><time>2013-08-04T08:52:38Z</time></trkpt><trkpt lat="46.707756" lon="8.811674"><ele>1927.58</ele><time>2013-08-04T08:52:44Z</time></trkpt><trkpt lat="46.707745" lon="8.811620"><ele>1929.02</ele><time>2013-08-04T08:52:48Z</time></trkpt><trkpt lat="46.707733" lon="8.811586"><ele>1929.50</ele><time>2013-08-04T08:52:50Z</time></trkpt><trkpt lat="46.707718" lon="8.811521"><ele>1929.02</ele><time>2013-08-04T08:52:57Z</time></trkpt><trkpt lat="46.707699" lon="8.811488"><ele>1929.50</ele><time>2013-08-04T08:53:06Z</time></trkpt><trkpt lat="46.707691" lon="8.811486"><ele>1929.50</ele><time>2013-08-04T08:53:15Z</time></trkpt><trkpt lat="46.707653" lon="8.811436"><ele>1929.50</ele><time>2013-08-04T08:53:21Z</time></trkpt><trkpt lat="46.707638" lon="8.811418"><ele>1929.50</ele><time>2013-08-04T08:53:23Z</time></trkpt><trkpt lat="46.707619" lon="8.811413"><ele>1929.02</ele><time>2013-08-04T08:53:25Z</time></trkpt><trkpt lat="46.707592" lon="8.811408"><ele>1928.54</ele><time>2013-08-04T08:53:29Z</time></trkpt><trkpt lat="46.707535" lon="8.811379"><ele>1928.54</ele><time>2013-08-04T08:53:34Z</time></trkpt><trkpt lat="46.707474" lon="8.811331"><ele>1927.58</ele><time>2013-08-04T08:53:40Z</time></trkpt><trkpt lat="46.707432" lon="8.811255"><ele>1927.58</ele><time>2013-08-04T08:53:48Z</time></trkpt><trkpt lat="46.707432" lon="8.811255"><ele>1927.58</ele><time>2013-08-04T08:53:49Z</time></trkpt><trkpt lat="46.707413" lon="8.811208"><ele>1926.14</ele><time>2013-08-04T08:53:54Z</time></trkpt><trkpt lat="46.707371" lon="8.811116"><ele>1925.66</ele><time>2013-08-04T08:54:00Z</time></trkpt><trkpt lat="46.707352" lon="8.811086"><ele>1926.62</ele><time>2013-08-04T08:54:02Z</time></trkpt><trkpt lat="46.707321" lon="8.811041"><ele>1927.10</ele><time>2013-08-04T08:54:07Z</time></trkpt><trkpt lat="46.707287" lon="8.810989"><ele>1926.62</ele><time>2013-08-04T08:54:12Z</time></trkpt><trkpt lat="46.707237" lon="8.810904"><ele>1926.62</ele><time>2013-08-04T08:54:18Z</time></trkpt><trkpt lat="46.707150" lon="8.810832"><ele>1927.10</ele><time>2013-08-04T08:54:26Z</time></trkpt><trkpt lat="46.707142" lon="8.810828"><ele>1926.62</ele><time>2013-08-04T08:54:27Z</time></trkpt><trkpt lat="46.707130" lon="8.810814"><ele>1926.62</ele><time>2013-08-04T08:54:29Z</time></trkpt><trkpt lat="46.707127" lon="8.810791"><ele>1925.66</ele><time>2013-08-04T08:54:43Z</time></trkpt><trkpt lat="46.707069" lon="8.810699"><ele>1925.66</ele><time>2013-08-04T08:54:52Z</time></trkpt><trkpt lat="46.707031" lon="8.810637"><ele>1924.70</ele><time>2013-08-04T08:54:59Z</time></trkpt><trkpt lat="46.706985" lon="8.810530"><ele>1924.70</ele><time>2013-08-04T08:55:07Z</time></trkpt><trkpt lat="46.706982" lon="8.810522"><ele>1924.22</ele><time>2013-08-04T08:55:10Z</time></trkpt><trkpt lat="46.706966" lon="8.810508"><ele>1924.22</ele><time>2013-08-04T08:55:14Z</time></trkpt><trkpt lat="46.706921" lon="8.810445"><ele>1924.22</ele><time>2013-08-04T08:55:22Z</time></trkpt><trkpt lat="46.706909" lon="8.810418"><ele>1923.74</ele><time>2013-08-04T08:55:31Z</time></trkpt><trkpt lat="46.706867" lon="8.810390"><ele>1923.74</ele><time>2013-08-04T08:55:36Z</time></trkpt><trkpt lat="46.706844" lon="8.810373"><ele>1923.25</ele><time>2013-08-04T08:55:41Z</time></trkpt><trkpt lat="46.706768" lon="8.810361"><ele>1922.77</ele><time>2013-08-04T08:55:49Z</time></trkpt><trkpt lat="46.706753" lon="8.810370"><ele>1921.33</ele><time>2013-08-04T08:55:51Z</time></trkpt><trkpt lat="46.706707" lon="8.810379"><ele>1921.33</ele><time>2013-08-04T08:55:54Z</time></trkpt><trkpt lat="46.706696" lon="8.810417"><ele>1921.33</ele><time>2013-08-04T08:55:57Z</time></trkpt><trkpt lat="46.706669" lon="8.810460"><ele>1920.37</ele><time>2013-08-04T08:56:04Z</time></trkpt><trkpt lat="46.706657" lon="8.810481"><ele>1919.41</ele><time>2013-08-04T08:56:08Z</time></trkpt><trkpt lat="46.706661" lon="8.810534"><ele>1917.49</ele><time>2013-08-04T08:56:13Z</time></trkpt><trkpt lat="46.706623" lon="8.810560"><ele>1917.49</ele><time>2013-08-04T08:56:16Z</time></trkpt><trkpt lat="46.706585" lon="8.810615"><ele>1917.01</ele><time>2013-08-04T08:56:21Z</time></trkpt><trkpt lat="46.706573" lon="8.810671"><ele>1917.01</ele><time>2013-08-04T08:56:32Z</time></trkpt><trkpt lat="46.706573" lon="8.810691"><ele>1916.53</ele><time>2013-08-04T08:56:38Z</time></trkpt><trkpt lat="46.706608" lon="8.810772"><ele>1916.04</ele><time>2013-08-04T08:56:46Z</time></trkpt><trkpt lat="46.706608" lon="8.810803"><ele>1915.08</ele><time>2013-08-04T08:56:49Z</time></trkpt><trkpt lat="46.706593" lon="8.810867"><ele>1914.60</ele><time>2013-08-04T08:56:54Z</time></trkpt><trkpt lat="46.706600" lon="8.810900"><ele>1915.08</ele><time>2013-08-04T08:56:56Z</time></trkpt><trkpt lat="46.706589" lon="8.810980"><ele>1914.12</ele><time>2013-08-04T08:57:02Z</time></trkpt><trkpt lat="46.706600" lon="8.811036"><ele>1914.12</ele><time>2013-08-04T08:57:05Z</time></trkpt><trkpt lat="46.706612" lon="8.811076"><ele>1913.16</ele><time>2013-08-04T08:57:08Z</time></trkpt><trkpt lat="46.706619" lon="8.811113"><ele>1913.16</ele><time>2013-08-04T08:57:12Z</time></trkpt><trkpt lat="46.706581" lon="8.811253"><ele>1912.68</ele><time>2013-08-04T08:57:19Z</time></trkpt><trkpt lat="46.706551" lon="8.811303"><ele>1913.16</ele><time>2013-08-04T08:57:23Z</time></trkpt><trkpt lat="46.706470" lon="8.811394"><ele>1913.16</ele><time>2013-08-04T08:57:32Z</time></trkpt><trkpt lat="46.706448" lon="8.811378"><ele>1913.16</ele><time>2013-08-04T08:57:36Z</time></trkpt><trkpt lat="46.706413" lon="8.811372"><ele>1913.16</ele><time>2013-08-04T08:57:39Z</time></trkpt><trkpt lat="46.706367" lon="8.811348"><ele>1913.16</ele><time>2013-08-04T08:57:43Z</time></trkpt><trkpt lat="46.706299" lon="8.811349"><ele>1913.64</ele><time>2013-08-04T08:57:53Z</time></trkpt><trkpt lat="46.706245" lon="8.811363"><ele>1913.64</ele><time>2013-08-04T08:58:00Z</time></trkpt><trkpt lat="46.706219" lon="8.811437"><ele>1914.12</ele><time>2013-08-04T08:58:05Z</time></trkpt><trkpt lat="46.706181" lon="8.811507"><ele>1913.64</ele><time>2013-08-04T08:58:10Z</time></trkpt><trkpt lat="46.706146" lon="8.811581"><ele>1913.64</ele><time>2013-08-04T08:58:17Z</time></trkpt><trkpt lat="46.706120" lon="8.811657"><ele>1913.64</ele><time>2013-08-04T08:58:23Z</time></trkpt><trkpt lat="46.706104" lon="8.811702"><ele>1913.64</ele><time>2013-08-04T08:58:25Z</time></trkpt><trkpt lat="46.706100" lon="8.811742"><ele>1912.20</ele><time>2013-08-04T08:58:29Z</time></trkpt><trkpt lat="46.706051" lon="8.811728"><ele>1910.76</ele><time>2013-08-04T08:58:34Z</time></trkpt><trkpt lat="46.706001" lon="8.811679"><ele>1909.32</ele><time>2013-08-04T08:58:43Z</time></trkpt><trkpt lat="46.706001" lon="8.811784"><ele>1907.87</ele><time>2013-08-04T08:58:55Z</time></trkpt><trkpt lat="46.705997" lon="8.811908"><ele>1906.91</ele><time>2013-08-04T08:59:02Z</time></trkpt><trkpt lat="46.705986" lon="8.811950"><ele>1907.39</ele><time>2013-08-04T08:59:04Z</time></trkpt><trkpt lat="46.705982" lon="8.812111"><ele>1908.83</ele><time>2013-08-04T08:59:14Z</time></trkpt><trkpt lat="46.705982" lon="8.812119"><ele>1908.83</ele><time>2013-08-04T08:59:15Z</time></trkpt><trkpt lat="46.705997" lon="8.812141"><ele>1910.28</ele><time>2013-08-04T08:59:18Z</time></trkpt><trkpt lat="46.705994" lon="8.812153"><ele>1910.28</ele><time>2013-08-04T08:59:19Z</time></trkpt><trkpt lat="46.705940" lon="8.812209"><ele>1910.28</ele><time>2013-08-04T08:59:23Z</time></trkpt><trkpt lat="46.705906" lon="8.812304"><ele>1909.80</ele><time>2013-08-04T08:59:34Z</time></trkpt><trkpt lat="46.705894" lon="8.812319"><ele>1908.83</ele><time>2013-08-04T08:59:35Z</time></trkpt><trkpt lat="46.705841" lon="8.812366"><ele>1907.87</ele><time>2013-08-04T08:59:40Z</time></trkpt><trkpt lat="46.705715" lon="8.812465"><ele>1907.39</ele><time>2013-08-04T08:59:50Z</time></trkpt><trkpt lat="46.705700" lon="8.812476"><ele>1907.39</ele><time>2013-08-04T08:59:54Z</time></trkpt><trkpt lat="46.705616" lon="8.812622"><ele>1905.95</ele><time>2013-08-04T09:00:05Z</time></trkpt><trkpt lat="46.705601" lon="8.812624"><ele>1904.99</ele><time>2013-08-04T09:00:19Z</time></trkpt><trkpt lat="46.705589" lon="8.812667"><ele>1904.99</ele><time>2013-08-04T09:00:22Z</time></trkpt><trkpt lat="46.705555" lon="8.812724"><ele>1904.51</ele><time>2013-08-04T09:00:26Z</time></trkpt><trkpt lat="46.705502" lon="8.812796"><ele>1903.07</ele><time>2013-08-04T09:00:34Z</time></trkpt><trkpt lat="46.705456" lon="8.812838"><ele>1903.07</ele><time>2013-08-04T09:00:40Z</time></trkpt><trkpt lat="46.705372" lon="8.812918"><ele>1903.55</ele><time>2013-08-04T09:00:48Z</time></trkpt><trkpt lat="46.705318" lon="8.812942"><ele>1902.59</ele><time>2013-08-04T09:00:54Z</time></trkpt><trkpt lat="46.705307" lon="8.812940"><ele>1902.59</ele><time>2013-08-04T09:00:56Z</time></trkpt><trkpt lat="46.705246" lon="8.812933"><ele>1901.63</ele><time>2013-08-04T09:01:02Z</time></trkpt><trkpt lat="46.705132" lon="8.812960"><ele>1901.63</ele><time>2013-08-04T09:01:11Z</time></trkpt><trkpt lat="46.705097" lon="8.812986"><ele>1901.14</ele><time>2013-08-04T09:01:16Z</time></trkpt><trkpt lat="46.705063" lon="8.813014"><ele>1902.11</ele><time>2013-08-04T09:01:19Z</time></trkpt><trkpt lat="46.705048" lon="8.813024"><ele>1902.59</ele><time>2013-08-04T09:01:21Z</time></trkpt><trkpt lat="46.705002" lon="8.813102"><ele>1901.14</ele><time>2013-08-04T09:01:27Z</time></trkpt><trkpt lat="46.704979" lon="8.813135"><ele>1901.63</ele><time>2013-08-04T09:01:38Z</time></trkpt><trkpt lat="46.704979" lon="8.813135"><ele>1902.11</ele><time>2013-08-04T09:01:40Z</time></trkpt><trkpt lat="46.704975" lon="8.813216"><ele>1901.63</ele><time>2013-08-04T09:01:48Z</time></trkpt><trkpt lat="46.704975" lon="8.813224"><ele>1901.14</ele><time>2013-08-04T09:01:49Z</time></trkpt><trkpt lat="46.704987" lon="8.813277"><ele>1899.70</ele><time>2013-08-04T09:01:58Z</time></trkpt><trkpt lat="46.704971" lon="8.813431"><ele>1898.26</ele><time>2013-08-04T09:02:07Z</time></trkpt><trkpt lat="46.704975" lon="8.813523"><ele>1896.82</ele><time>2013-08-04T09:02:14Z</time></trkpt><trkpt lat="46.704960" lon="8.813654"><ele>1896.34</ele><time>2013-08-04T09:02:22Z</time></trkpt><trkpt lat="46.704926" lon="8.813724"><ele>1894.42</ele><time>2013-08-04T09:02:29Z</time></trkpt><trkpt lat="46.704872" lon="8.813747"><ele>1893.93</ele><time>2013-08-04T09:02:36Z</time></trkpt><trkpt lat="46.704746" lon="8.813746"><ele>1892.97</ele><time>2013-08-04T09:02:45Z</time></trkpt><trkpt lat="46.704639" lon="8.813771"><ele>1892.49</ele><time>2013-08-04T09:02:53Z</time></trkpt><trkpt lat="46.704613" lon="8.813781"><ele>1891.53</ele><time>2013-08-04T09:02:55Z</time></trkpt><trkpt lat="46.704548" lon="8.813848"><ele>1890.09</ele><time>2013-08-04T09:03:04Z</time></trkpt><trkpt lat="46.704502" lon="8.813932"><ele>1888.65</ele><time>2013-08-04T09:03:11Z</time></trkpt><trkpt lat="46.704483" lon="8.814013"><ele>1887.21</ele><time>2013-08-04T09:03:21Z</time></trkpt><trkpt lat="46.704483" lon="8.814080"><ele>1886.24</ele><time>2013-08-04T09:03:35Z</time></trkpt><trkpt lat="46.704498" lon="8.814196"><ele>1884.32</ele><time>2013-08-04T09:03:41Z</time></trkpt><trkpt lat="46.704483" lon="8.814278"><ele>1883.36</ele><time>2013-08-04T09:03:47Z</time></trkpt><trkpt lat="46.704487" lon="8.814326"><ele>1882.40</ele><time>2013-08-04T09:03:50Z</time></trkpt><trkpt lat="46.704483" lon="8.814452"><ele>1881.44</ele><time>2013-08-04T09:03:59Z</time></trkpt><trkpt lat="46.704544" lon="8.814564"><ele>1880.48</ele><time>2013-08-04T09:04:08Z</time></trkpt><trkpt lat="46.704601" lon="8.814677"><ele>1878.55</ele><time>2013-08-04T09:04:18Z</time></trkpt><trkpt lat="46.704620" lon="8.814726"><ele>1877.59</ele><time>2013-08-04T09:04:20Z</time></trkpt><trkpt lat="46.704655" lon="8.814795"><ele>1877.11</ele><time>2013-08-04T09:04:26Z</time></trkpt><trkpt lat="46.704697" lon="8.814901"><ele>1876.15</ele><time>2013-08-04T09:04:33Z</time></trkpt><trkpt lat="46.704708" lon="8.814953"><ele>1875.67</ele><time>2013-08-04T09:04:36Z</time></trkpt><trkpt lat="46.704731" lon="8.815051"><ele>1874.23</ele><time>2013-08-04T09:04:41Z</time></trkpt><trkpt lat="46.704723" lon="8.815082"><ele>1874.71</ele><time>2013-08-04T09:04:44Z</time></trkpt><trkpt lat="46.704720" lon="8.815170"><ele>1873.27</ele><time>2013-08-04T09:04:48Z</time></trkpt><trkpt lat="46.704681" lon="8.815265"><ele>1871.34</ele><time>2013-08-04T09:04:55Z</time></trkpt><trkpt lat="46.704678" lon="8.815292"><ele>1870.38</ele><time>2013-08-04T09:04:57Z</time></trkpt><trkpt lat="46.704674" lon="8.815315"><ele>1870.38</ele><time>2013-08-04T09:05:02Z</time></trkpt><trkpt lat="46.704655" lon="8.815342"><ele>1870.38</ele><time>2013-08-04T09:05:05Z</time></trkpt><trkpt lat="46.704639" lon="8.815387"><ele>1868.94</ele><time>2013-08-04T09:05:15Z</time></trkpt><trkpt lat="46.704639" lon="8.815387"><ele>1871.82</ele><time>2013-08-04T09:05:22Z</time></trkpt></trkseg></trk></gpx>